BCS25K OMDB-EGLL
Flight info
| Callsign | BCS25K |
|---|---|
| Flight time | 7h 13m |
| Altitude | 28000 |
| Route | SENPA N571 ALPOB L768 ULADA Q143 MEDGO N697 HIL A788 HLF/N0504F300 L604 WEJ L677 CVO L617 NOZ L551 ANTAR UN133 KPC DCT FSK/N0490F320 DCT DISOR DCT LONTA UL608 DOLEV DCT BOSNA DCT MARIL DCT OKSIG DCT KUSIB DCT GORPA DCT DOL DCT NIPEL DCT MODSA DCT BABEG DCT LIRSU DCT ARCKY DCT BUB L608 LOGAN |
| Aircraft | B77L/H-SDE1E2E3FGHIJ2J3J4J5M1RWXY/LB1D1 |
Departure
| Time | 2026-05-04 01:07 |
|---|---|
| Airport | Dubai International Airport (OMDB) |
Arrival
| Time | 2026-05-04 08:20 |
|---|---|
| Airport | London Heathrow Airport (EGLL) |
| Time | Latitude | Longitude | Altitude | Speed | Heading |
|---|---|---|---|---|---|
| 2026-05-04 00:49 | 25.26256 | 55.36153 | 26 ft | 0 kts | 32° |
| 2026-05-04 00:58 | 25.26244 | 55.36144 | 26 ft | 4 kts | 32° |
| 2026-05-04 00:58 | 25.26221 | 55.36128 | 25 ft | 4 kts | 32° |
| 2026-05-04 00:59 | 25.26201 | 55.36112 | 27 ft | 4 kts | 53° |
| 2026-05-04 00:59 | 25.26191 | 55.36087 | 26 ft | 4 kts | 92° |
| 2026-05-04 00:59 | 25.26196 | 55.36063 | 24 ft | 3 kts | 122° |
| 2026-05-04 01:03 | 25.26187 | 55.36079 | 23 ft | 5 kts | 122° |
| 2026-05-04 01:03 | 25.26155 | 55.36137 | 23 ft | 12 kts | 121° |
| 2026-05-04 01:04 | 25.26101 | 55.36235 | 26 ft | 16 kts | 123° |
| 2026-05-04 01:04 | 25.26028 | 55.36330 | 24 ft | 16 kts | 161° |
| 2026-05-04 01:04 | 25.25927 | 55.36275 | 22 ft | 17 kts | 212° |
| 2026-05-04 01:04 | 25.25828 | 55.36209 | 18 ft | 17 kts | 209° |
| 2026-05-04 01:05 | 25.25729 | 55.36144 | 17 ft | 17 kts | 211° |
| 2026-05-04 01:05 | 25.25709 | 55.36034 | 10 ft | 18 kts | 299° |
| 2026-05-04 01:05 | 25.25715 | 55.35915 | 4 ft | 18 kts | 221° |
| 2026-05-04 01:05 | 25.25599 | 55.35878 | 4 ft | 19 kts | 146° |
| 2026-05-04 01:06 | 25.25568 | 55.35929 | 5 ft | 0 kts | 119° |
| 2026-05-04 01:06 | 25.25566 | 55.35932 | 5 ft | 4 kts | 119° |
| 2026-05-04 01:07 | 25.25428 | 55.36184 | 5 ft | 80 kts | 122° |
| 2026-05-04 01:07 | 25.24990 | 55.36969 | 16 ft | 159 kts | 122° |
| 2026-05-04 01:07 | 25.24286 | 55.38238 | 41 ft | 222 kts | 121° |
| 2026-05-04 01:07 | 25.23514 | 55.39680 | 935 ft | 212 kts | 121° |
| 2026-05-04 01:08 | 25.22735 | 55.41098 | 1551 ft | 221 kts | 123° |
| 2026-05-04 01:08 | 25.21900 | 55.42570 | 1897 ft | 233 kts | 123° |
| 2026-05-04 01:08 | 25.20868 | 55.44035 | 1965 ft | 250 kts | 144° |
| 2026-05-04 01:08 | 25.19267 | 55.44710 | 2218 ft | 251 kts | 182° |
| 2026-05-04 01:09 | 25.17599 | 55.44212 | 2371 ft | 254 kts | 214° |
| 2026-05-04 01:09 | 25.16101 | 55.43183 | 2778 ft | 258 kts | 217° |
| 2026-05-04 01:09 | 25.14818 | 55.41888 | 3430 ft | 244 kts | 243° |
| 2026-05-04 01:09 | 25.14270 | 55.40177 | 4143 ft | 234 kts | 263° |
| 2026-05-04 01:10 | 25.14219 | 55.38396 | 4690 ft | 234 kts | 275° |
| 2026-05-04 01:10 | 25.14377 | 55.36589 | 5143 ft | 239 kts | 276° |
| 2026-05-04 01:10 | 25.14555 | 55.34746 | 5645 ft | 243 kts | 276° |
| 2026-05-04 01:10 | 25.14729 | 55.32884 | 6189 ft | 247 kts | 276° |
| 2026-05-04 01:11 | 25.14907 | 55.30930 | 6459 ft | 262 kts | 276° |
| 2026-05-04 01:11 | 25.15215 | 55.28920 | 6898 ft | 268 kts | 284° |
| 2026-05-04 01:11 | 25.15726 | 55.26925 | 7466 ft | 271 kts | 286° |
| 2026-05-04 01:11 | 25.16249 | 55.24937 | 8155 ft | 269 kts | 285° |
| 2026-05-04 01:12 | 25.16760 | 55.22947 | 8793 ft | 271 kts | 285° |
| 2026-05-04 01:12 | 25.17274 | 55.20935 | 9371 ft | 273 kts | 285° |
| 2026-05-04 01:12 | 25.17787 | 55.18909 | 9954 ft | 275 kts | 285° |
| 2026-05-04 01:12 | 25.18305 | 55.16848 | 10379 ft | 284 kts | 285° |
| 2026-05-04 01:13 | 25.18662 | 55.15427 | 10454 ft | 298 kts | 285° |
| 2026-05-04 01:13 | 25.19230 | 55.13151 | 10609 ft | 316 kts | 285° |
| 2026-05-04 01:13 | 25.20035 | 55.09925 | 10795 ft | 341 kts | 285° |
| 2026-05-04 01:13 | 25.20676 | 55.07339 | 11040 ft | 356 kts | 285° |
| 2026-05-04 01:14 | 25.21336 | 55.04664 | 11450 ft | 365 kts | 285° |
| 2026-05-04 01:14 | 25.22008 | 55.01936 | 11964 ft | 371 kts | 286° |
| 2026-05-04 01:14 | 25.22461 | 55.00069 | 12352 ft | 373 kts | 285° |
| 2026-05-04 01:14 | 25.23229 | 54.96591 | 13083 ft | 377 kts | 285° |
| 2026-05-04 01:15 | 25.25725 | 54.85122 | 15187 ft | 389 kts | 285° |
| 2026-05-04 01:15 | 25.28289 | 54.73416 | 17349 ft | 396 kts | 287° |
| 2026-05-04 01:15 | 25.31673 | 54.60114 | 19363 ft | 407 kts | 288° |
| 2026-05-04 01:15 | 25.38205 | 54.35528 | 22626 ft | 428 kts | 288° |
| 2026-05-04 01:16 | 25.44746 | 54.09662 | 25377 ft | 442 kts | 285° |
| 2026-05-04 01:16 | 25.49166 | 53.91595 | 27147 ft | 450 kts | 285° |
| 2026-05-04 01:16 | 25.49974 | 53.88245 | 27237 ft | 448 kts | 285° |
| 2026-05-04 01:16 | 25.50776 | 53.84918 | 27340 ft | 448 kts | 285° |
| 2026-05-04 01:17 | 25.52536 | 53.77638 | 27524 ft | 451 kts | 285° |
| 2026-05-04 01:17 | 25.55372 | 53.65788 | 27791 ft | 448 kts | 284° |
| 2026-05-04 01:17 | 25.56159 | 53.62437 | 27781 ft | 450 kts | 284° |
| 2026-05-04 01:17 | 25.56950 | 53.59067 | 27796 ft | 452 kts | 284° |
| 2026-05-04 01:18 | 25.57742 | 53.55696 | 27787 ft | 452 kts | 284° |
| 2026-05-04 01:18 | 25.58535 | 53.52330 | 27785 ft | 451 kts | 284° |
| 2026-05-04 01:18 | 25.59316 | 53.49013 | 27786 ft | 451 kts | 284° |
| 2026-05-04 01:18 | 25.60118 | 53.45608 | 27789 ft | 451 kts | 284° |
| 2026-05-04 01:19 | 25.60897 | 53.42293 | 27791 ft | 450 kts | 284° |
| 2026-05-04 01:19 | 25.61688 | 53.38931 | 27792 ft | 450 kts | 284° |
| 2026-05-04 01:19 | 25.62482 | 53.35576 | 27784 ft | 450 kts | 284° |
| 2026-05-04 01:19 | 25.63278 | 53.32213 | 27791 ft | 450 kts | 284° |
| 2026-05-04 01:20 | 25.64072 | 53.28856 | 27790 ft | 450 kts | 284° |
| 2026-05-04 01:20 | 25.64865 | 53.25497 | 27788 ft | 450 kts | 284° |
| 2026-05-04 01:20 | 25.65659 | 53.22132 | 27788 ft | 451 kts | 284° |
| 2026-05-04 01:20 | 25.66452 | 53.18763 | 27797 ft | 451 kts | 284° |
| 2026-05-04 01:21 | 25.67243 | 53.15397 | 27806 ft | 451 kts | 284° |
| 2026-05-04 01:21 | 25.68024 | 53.12071 | 27800 ft | 452 kts | 284° |
| 2026-05-04 01:21 | 25.68815 | 53.08700 | 27798 ft | 452 kts | 284° |
| 2026-05-04 01:21 | 25.69606 | 53.05330 | 27800 ft | 452 kts | 285° |
| 2026-05-04 01:22 | 25.70549 | 53.02011 | 27788 ft | 452 kts | 290° |
| 2026-05-04 01:22 | 25.71740 | 52.98790 | 27796 ft | 452 kts | 294° |
| 2026-05-04 01:22 | 25.73193 | 52.95691 | 27814 ft | 452 kts | 297° |
| 2026-05-04 01:22 | 25.74681 | 52.92615 | 27803 ft | 453 kts | 296° |
| 2026-05-04 01:23 | 25.76158 | 52.89532 | 27800 ft | 453 kts | 296° |
| 2026-05-04 01:23 | 25.77630 | 52.86436 | 27800 ft | 453 kts | 296° |
| 2026-05-04 01:23 | 25.79095 | 52.83339 | 27799 ft | 453 kts | 296° |
| 2026-05-04 01:23 | 25.80558 | 52.80239 | 27802 ft | 453 kts | 296° |
| 2026-05-04 01:24 | 25.82019 | 52.77141 | 27801 ft | 453 kts | 296° |
| 2026-05-04 01:24 | 25.83480 | 52.74038 | 27795 ft | 454 kts | 296° |
| 2026-05-04 01:24 | 25.84942 | 52.70933 | 27804 ft | 454 kts | 296° |
| 2026-05-04 01:24 | 25.86404 | 52.67827 | 27810 ft | 454 kts | 296° |
| 2026-05-04 01:25 | 25.87868 | 52.64715 | 27807 ft | 454 kts | 296° |
| 2026-05-04 01:25 | 25.89329 | 52.61606 | 27804 ft | 455 kts | 296° |
| 2026-05-04 01:25 | 25.90777 | 52.58481 | 27805 ft | 454 kts | 295° |
| 2026-05-04 01:25 | 25.92180 | 52.55335 | 27808 ft | 455 kts | 295° |
| 2026-05-04 01:26 | 25.93548 | 52.52221 | 27804 ft | 455 kts | 294° |
| 2026-05-04 01:26 | 25.94935 | 52.49062 | 27816 ft | 455 kts | 294° |
| 2026-05-04 01:26 | 25.96327 | 52.45908 | 27813 ft | 455 kts | 295° |
| 2026-05-04 01:26 | 25.97723 | 52.42756 | 27810 ft | 454 kts | 295° |
| 2026-05-04 01:27 | 25.99120 | 52.39606 | 27812 ft | 454 kts | 295° |
| 2026-05-04 01:27 | 26.00520 | 52.36457 | 27812 ft | 454 kts | 295° |
| 2026-05-04 01:27 | 26.01921 | 52.33313 | 27811 ft | 454 kts | 295° |
| 2026-05-04 01:27 | 26.03322 | 52.30167 | 27809 ft | 453 kts | 295° |
| 2026-05-04 01:28 | 26.04720 | 52.27027 | 27807 ft | 453 kts | 295° |
| 2026-05-04 01:28 | 26.06119 | 52.23879 | 27812 ft | 453 kts | 295° |
| 2026-05-04 01:28 | 26.07515 | 52.20736 | 27814 ft | 453 kts | 295° |
| 2026-05-04 01:28 | 26.08910 | 52.17589 | 27812 ft | 453 kts | 295° |
| 2026-05-04 01:29 | 26.10290 | 52.14478 | 27829 ft | 453 kts | 294° |
| 2026-05-04 01:29 | 26.11682 | 52.11333 | 27817 ft | 453 kts | 294° |
| 2026-05-04 01:29 | 26.13076 | 52.08182 | 27814 ft | 453 kts | 294° |
| 2026-05-04 01:29 | 26.14466 | 52.05038 | 27817 ft | 452 kts | 294° |
| 2026-05-04 01:30 | 26.15856 | 52.01895 | 27811 ft | 452 kts | 294° |
| 2026-05-04 01:30 | 26.17244 | 51.98754 | 27823 ft | 452 kts | 294° |
| 2026-05-04 01:30 | 26.18653 | 51.95622 | 27818 ft | 452 kts | 295° |
| 2026-05-04 01:30 | 26.20070 | 51.92497 | 27816 ft | 452 kts | 295° |
| 2026-05-04 01:31 | 26.21471 | 51.89353 | 27819 ft | 453 kts | 294° |
| 2026-05-04 01:31 | 26.22858 | 51.86209 | 27820 ft | 453 kts | 294° |
| 2026-05-04 01:31 | 26.24247 | 51.83060 | 27833 ft | 453 kts | 294° |
| 2026-05-04 01:31 | 26.25640 | 51.79910 | 27802 ft | 453 kts | 294° |
| 2026-05-04 01:32 | 26.27022 | 51.76807 | 27821 ft | 453 kts | 294° |
| 2026-05-04 01:32 | 26.28424 | 51.73671 | 27824 ft | 452 kts | 294° |
| 2026-05-04 01:32 | 26.29831 | 51.70523 | 27822 ft | 452 kts | 294° |
| 2026-05-04 01:32 | 26.31230 | 51.67386 | 27818 ft | 452 kts | 294° |
| 2026-05-04 01:33 | 26.32629 | 51.64243 | 27820 ft | 452 kts | 294° |
| 2026-05-04 01:33 | 26.34028 | 51.61095 | 27823 ft | 452 kts | 294° |
| 2026-05-04 01:33 | 26.35423 | 51.57957 | 27820 ft | 452 kts | 294° |
| 2026-05-04 01:33 | 26.36819 | 51.54815 | 27819 ft | 452 kts | 294° |
| 2026-05-04 01:34 | 26.38144 | 51.51630 | 27820 ft | 451 kts | 290° |
| 2026-05-04 01:34 | 26.39203 | 51.48344 | 27848 ft | 449 kts | 287° |
| 2026-05-04 01:34 | 26.40218 | 51.45043 | 27838 ft | 450 kts | 287° |
| 2026-05-04 01:34 | 26.41253 | 51.41754 | 27832 ft | 450 kts | 288° |
| 2026-05-04 01:35 | 26.42286 | 51.38506 | 27834 ft | 450 kts | 288° |
| 2026-05-04 01:35 | 26.43339 | 51.35221 | 27832 ft | 450 kts | 288° |
| 2026-05-04 01:35 | 26.44414 | 51.31940 | 27825 ft | 450 kts | 288° |
| 2026-05-04 01:35 | 26.45492 | 51.28657 | 27827 ft | 450 kts | 288° |
| 2026-05-04 01:36 | 26.46564 | 51.25377 | 27832 ft | 450 kts | 288° |
| 2026-05-04 01:36 | 26.47618 | 51.22089 | 27827 ft | 450 kts | 288° |
| 2026-05-04 01:36 | 26.48664 | 51.18792 | 27827 ft | 450 kts | 288° |
| 2026-05-04 01:36 | 26.49707 | 51.15494 | 27840 ft | 450 kts | 287° |
| 2026-05-04 01:37 | 26.50736 | 51.12242 | 27832 ft | 450 kts | 287° |
| 2026-05-04 01:37 | 26.51779 | 51.08951 | 27827 ft | 450 kts | 287° |
| 2026-05-04 01:37 | 26.52821 | 51.05660 | 27832 ft | 449 kts | 287° |
| 2026-05-04 01:37 | 26.53876 | 51.02330 | 27826 ft | 449 kts | 287° |
| 2026-05-04 01:38 | 26.54902 | 50.99091 | 27826 ft | 448 kts | 287° |
| 2026-05-04 01:38 | 26.55941 | 50.95805 | 27830 ft | 448 kts | 287° |
| 2026-05-04 01:38 | 26.56976 | 50.92530 | 27829 ft | 448 kts | 287° |
| 2026-05-04 01:38 | 26.58006 | 50.89247 | 27829 ft | 447 kts | 287° |
| 2026-05-04 01:39 | 26.59016 | 50.85963 | 27824 ft | 447 kts | 287° |
| 2026-05-04 01:39 | 26.60022 | 50.82671 | 27826 ft | 448 kts | 287° |
| 2026-05-04 01:39 | 26.61026 | 50.79379 | 27830 ft | 448 kts | 287° |
| 2026-05-04 01:39 | 26.62034 | 50.76083 | 27843 ft | 448 kts | 287° |
| 2026-05-04 01:40 | 26.63042 | 50.72788 | 27836 ft | 448 kts | 287° |
| 2026-05-04 01:40 | 26.64051 | 50.69489 | 27829 ft | 448 kts | 287° |
| 2026-05-04 01:40 | 26.65050 | 50.66192 | 27832 ft | 448 kts | 286° |
| 2026-05-04 01:40 | 26.66034 | 50.62889 | 27827 ft | 448 kts | 286° |
| 2026-05-04 01:41 | 26.67013 | 50.59583 | 27835 ft | 448 kts | 286° |
| 2026-05-04 01:41 | 26.67992 | 50.56279 | 27836 ft | 448 kts | 286° |
| 2026-05-04 01:41 | 26.68973 | 50.52973 | 27835 ft | 448 kts | 286° |
| 2026-05-04 01:41 | 26.69954 | 50.49669 | 27835 ft | 448 kts | 286° |
| 2026-05-04 01:42 | 26.70914 | 50.46359 | 27834 ft | 447 kts | 284° |
| 2026-05-04 01:42 | 26.71784 | 50.43015 | 27837 ft | 447 kts | 283° |
| 2026-05-04 01:42 | 26.72619 | 50.39669 | 27849 ft | 447 kts | 283° |
| 2026-05-04 01:42 | 26.73464 | 50.36328 | 27838 ft | 447 kts | 283° |
| 2026-05-04 01:43 | 26.74326 | 50.32982 | 27843 ft | 447 kts | 284° |
| 2026-05-04 01:43 | 26.75112 | 50.29621 | 27829 ft | 445 kts | 279° |
| 2026-05-04 01:43 | 26.75613 | 50.26253 | 27835 ft | 444 kts | 276° |
| 2026-05-04 01:43 | 26.75891 | 50.22825 | 27836 ft | 443 kts | 271° |
| 2026-05-04 01:44 | 26.75917 | 50.19381 | 27844 ft | 442 kts | 269° |
| 2026-05-04 01:44 | 26.75928 | 50.15938 | 27835 ft | 442 kts | 269° |
| 2026-05-04 01:44 | 26.75949 | 50.12500 | 27830 ft | 442 kts | 269° |
| 2026-05-04 01:44 | 26.75977 | 50.09059 | 27832 ft | 442 kts | 269° |
| 2026-05-04 01:45 | 26.76008 | 50.05619 | 27836 ft | 442 kts | 270° |
| 2026-05-04 01:45 | 26.76040 | 50.02177 | 27833 ft | 442 kts | 270° |
| 2026-05-04 01:45 | 26.76101 | 49.95286 | 27817 ft | 443 kts | 269° |
| 2026-05-04 01:46 | 26.76126 | 49.91838 | 27824 ft | 443 kts | 269° |
| 2026-05-04 01:46 | 26.76148 | 49.88393 | 27829 ft | 443 kts | 269° |
| 2026-05-04 01:46 | 26.76168 | 49.84939 | 27821 ft | 444 kts | 269° |
| 2026-05-04 01:46 | 26.76187 | 49.81483 | 27834 ft | 444 kts | 269° |
| 2026-05-04 01:47 | 26.76206 | 49.78078 | 27825 ft | 443 kts | 269° |
| 2026-05-04 01:47 | 26.76225 | 49.74626 | 27815 ft | 443 kts | 269° |
| 2026-05-04 01:47 | 26.76243 | 49.71183 | 27813 ft | 443 kts | 269° |
| 2026-05-04 01:47 | 26.76260 | 49.67742 | 27813 ft | 442 kts | 269° |
| 2026-05-04 01:48 | 26.76277 | 49.64300 | 27810 ft | 442 kts | 269° |
| 2026-05-04 01:48 | 26.76292 | 49.60866 | 27815 ft | 441 kts | 269° |
| 2026-05-04 01:48 | 26.76307 | 49.57438 | 27810 ft | 441 kts | 269° |
| 2026-05-04 01:48 | 26.76325 | 49.54007 | 27816 ft | 441 kts | 269° |
| 2026-05-04 01:49 | 26.76343 | 49.50572 | 27822 ft | 441 kts | 269° |
| 2026-05-04 01:49 | 26.76361 | 49.47136 | 27823 ft | 441 kts | 269° |
| 2026-05-04 01:49 | 26.76377 | 49.43699 | 27820 ft | 441 kts | 269° |
| 2026-05-04 01:49 | 26.76393 | 49.40262 | 27825 ft | 442 kts | 269° |
| 2026-05-04 01:50 | 26.76407 | 49.36866 | 27824 ft | 442 kts | 269° |
| 2026-05-04 01:50 | 26.76423 | 49.33420 | 27829 ft | 442 kts | 269° |
| 2026-05-04 01:50 | 26.76440 | 49.29984 | 27833 ft | 442 kts | 269° |
| 2026-05-04 01:50 | 26.76456 | 49.26538 | 27834 ft | 443 kts | 269° |
| 2026-05-04 01:51 | 26.76472 | 49.23093 | 27835 ft | 443 kts | 269° |
| 2026-05-04 01:51 | 26.76487 | 49.19649 | 27834 ft | 443 kts | 269° |
| 2026-05-04 01:51 | 26.76500 | 49.16206 | 27840 ft | 443 kts | 269° |
| 2026-05-04 01:51 | 26.76513 | 49.12757 | 27849 ft | 443 kts | 269° |
| 2026-05-04 01:52 | 26.76524 | 49.09321 | 27841 ft | 442 kts | 269° |
| 2026-05-04 01:52 | 26.76535 | 49.05880 | 27847 ft | 442 kts | 269° |
| 2026-05-04 01:52 | 26.76546 | 49.02441 | 27846 ft | 441 kts | 269° |
| 2026-05-04 01:52 | 26.76555 | 48.99014 | 27845 ft | 441 kts | 269° |
| 2026-05-04 01:53 | 26.76563 | 48.95582 | 27846 ft | 440 kts | 269° |
| 2026-05-04 01:53 | 26.76571 | 48.92159 | 27854 ft | 440 kts | 269° |
| 2026-05-04 01:53 | 26.76577 | 48.88737 | 27850 ft | 440 kts | 269° |
| 2026-05-04 01:53 | 26.76583 | 48.85315 | 27855 ft | 440 kts | 269° |
| 2026-05-04 01:54 | 26.76588 | 48.81892 | 27854 ft | 440 kts | 269° |
| 2026-05-04 01:54 | 26.76593 | 48.78472 | 27849 ft | 440 kts | 269° |
| 2026-05-04 01:54 | 26.76597 | 48.75055 | 27855 ft | 439 kts | 269° |
| 2026-05-04 01:54 | 26.76599 | 48.71636 | 27865 ft | 440 kts | 269° |
| 2026-05-04 01:55 | 26.76582 | 48.68205 | 27865 ft | 440 kts | 268° |
| 2026-05-04 01:55 | 26.76501 | 48.64788 | 27865 ft | 440 kts | 266° |
| 2026-05-04 01:55 | 26.76391 | 48.61369 | 27867 ft | 440 kts | 266° |
| 2026-05-04 01:55 | 26.76278 | 48.57953 | 27863 ft | 440 kts | 266° |
| 2026-05-04 01:56 | 26.76170 | 48.54579 | 27871 ft | 440 kts | 266° |
| 2026-05-04 01:56 | 26.76068 | 48.51154 | 27875 ft | 440 kts | 267° |
| 2026-05-04 01:56 | 26.75968 | 48.47729 | 27881 ft | 440 kts | 267° |
| 2026-05-04 01:56 | 26.75870 | 48.44307 | 27877 ft | 441 kts | 267° |
| 2026-05-04 01:57 | 26.75772 | 48.40874 | 27876 ft | 441 kts | 266° |
| 2026-05-04 01:57 | 26.75672 | 48.37449 | 27888 ft | 441 kts | 266° |
| 2026-05-04 01:57 | 26.75572 | 48.34021 | 27880 ft | 441 kts | 266° |
| 2026-05-04 01:57 | 26.75477 | 48.30585 | 27893 ft | 441 kts | 267° |
| 2026-05-04 01:58 | 26.75387 | 48.27160 | 27891 ft | 440 kts | 267° |
| 2026-05-04 01:58 | 26.75296 | 48.23730 | 27891 ft | 440 kts | 267° |
| 2026-05-04 01:58 | 26.75205 | 48.20308 | 27897 ft | 440 kts | 267° |
| 2026-05-04 01:58 | 26.75113 | 48.16885 | 27898 ft | 440 kts | 267° |
| 2026-05-04 01:59 | 26.75018 | 48.13458 | 27900 ft | 440 kts | 266° |
| 2026-05-04 01:59 | 26.74923 | 48.10033 | 27897 ft | 440 kts | 266° |
| 2026-05-04 01:59 | 26.74828 | 48.06652 | 27905 ft | 440 kts | 266° |
| 2026-05-04 01:59 | 26.74732 | 48.03225 | 27901 ft | 440 kts | 266° |
| 2026-05-04 02:00 | 26.74634 | 47.99797 | 27903 ft | 441 kts | 266° |
| 2026-05-04 02:00 | 26.74535 | 47.96374 | 27909 ft | 441 kts | 266° |
| 2026-05-04 02:00 | 26.74436 | 47.92946 | 27907 ft | 441 kts | 266° |
| 2026-05-04 02:00 | 26.74337 | 47.89513 | 27912 ft | 441 kts | 267° |
| 2026-05-04 02:01 | 26.74369 | 47.86081 | 27911 ft | 442 kts | 271° |
| 2026-05-04 02:01 | 26.74562 | 47.82651 | 27918 ft | 442 kts | 271° |
| 2026-05-04 02:01 | 26.74751 | 47.79218 | 27922 ft | 442 kts | 271° |
| 2026-05-04 02:01 | 26.74931 | 47.75787 | 27919 ft | 441 kts | 271° |
| 2026-05-04 02:02 | 26.75106 | 47.72362 | 27903 ft | 441 kts | 271° |
| 2026-05-04 02:02 | 26.75277 | 47.68939 | 27908 ft | 441 kts | 271° |
| 2026-05-04 02:02 | 26.75390 | 47.66670 | 27908 ft | 440 kts | 271° |
| 2026-05-04 02:02 | 26.75613 | 47.62136 | 27915 ft | 440 kts | 271° |
| 2026-05-04 02:03 | 26.75726 | 47.59830 | 27911 ft | 440 kts | 271° |
| 2026-05-04 02:03 | 26.75947 | 47.55307 | 27911 ft | 439 kts | 271° |
| 2026-05-04 02:03 | 26.76058 | 47.53034 | 27917 ft | 439 kts | 271° |
| 2026-05-04 02:03 | 26.76223 | 47.49623 | 27917 ft | 439 kts | 271° |
| 2026-05-04 02:04 | 26.76388 | 47.46211 | 27928 ft | 439 kts | 271° |
| 2026-05-04 02:04 | 26.76553 | 47.42795 | 27916 ft | 439 kts | 271° |
| 2026-05-04 02:04 | 26.76717 | 47.39380 | 27913 ft | 439 kts | 271° |
| 2026-05-04 02:04 | 26.77005 | 47.35972 | 27904 ft | 441 kts | 276° |
| 2026-05-04 02:05 | 26.77536 | 47.32585 | 27931 ft | 442 kts | 277° |
| 2026-05-04 02:05 | 26.78077 | 47.29200 | 27941 ft | 442 kts | 277° |
| 2026-05-04 02:05 | 26.78609 | 47.25810 | 27923 ft | 442 kts | 277° |
| 2026-05-04 02:05 | 26.79134 | 47.22417 | 27921 ft | 442 kts | 277° |
| 2026-05-04 02:06 | 26.79654 | 47.19030 | 27922 ft | 441 kts | 277° |
| 2026-05-04 02:06 | 26.80171 | 47.15640 | 27914 ft | 441 kts | 276° |
| 2026-05-04 02:06 | 26.80687 | 47.12254 | 27921 ft | 441 kts | 276° |
| 2026-05-04 02:06 | 26.81201 | 47.08870 | 27928 ft | 441 kts | 276° |
| 2026-05-04 02:07 | 26.81715 | 47.05485 | 27927 ft | 441 kts | 276° |
| 2026-05-04 02:07 | 26.82228 | 47.02099 | 27925 ft | 441 kts | 276° |
| 2026-05-04 02:07 | 26.82740 | 46.98716 | 27930 ft | 441 kts | 276° |
| 2026-05-04 02:07 | 26.83252 | 46.95331 | 27927 ft | 441 kts | 276° |
| 2026-05-04 02:08 | 26.83765 | 46.91933 | 27931 ft | 441 kts | 276° |
| 2026-05-04 02:08 | 26.84276 | 46.88545 | 27923 ft | 441 kts | 276° |
| 2026-05-04 02:08 | 26.84785 | 46.85159 | 27933 ft | 441 kts | 276° |
| 2026-05-04 02:08 | 26.85294 | 46.81773 | 27924 ft | 441 kts | 276° |
| 2026-05-04 02:09 | 26.85802 | 46.78380 | 27921 ft | 441 kts | 276° |
| 2026-05-04 02:09 | 26.86309 | 46.74995 | 27926 ft | 441 kts | 276° |
| 2026-05-04 02:09 | 26.86814 | 46.71616 | 27926 ft | 440 kts | 276° |
| 2026-05-04 02:09 | 26.87319 | 46.68230 | 27924 ft | 440 kts | 276° |
| 2026-05-04 02:10 | 26.87822 | 46.64854 | 27926 ft | 440 kts | 276° |
| 2026-05-04 02:10 | 26.88318 | 46.61518 | 27924 ft | 440 kts | 276° |
| 2026-05-04 02:10 | 26.88819 | 46.58140 | 27928 ft | 440 kts | 276° |
| 2026-05-04 02:10 | 26.89320 | 46.54763 | 27928 ft | 440 kts | 276° |
| 2026-05-04 02:11 | 26.89820 | 46.51380 | 27923 ft | 440 kts | 276° |
| 2026-05-04 02:11 | 26.90320 | 46.47997 | 27925 ft | 440 kts | 276° |
| 2026-05-04 02:11 | 26.90820 | 46.44610 | 27940 ft | 440 kts | 276° |
| 2026-05-04 02:11 | 26.91318 | 46.41226 | 27931 ft | 440 kts | 276° |
| 2026-05-04 02:12 | 26.91816 | 46.37845 | 27924 ft | 440 kts | 276° |
| 2026-05-04 02:12 | 26.92318 | 46.34457 | 27921 ft | 440 kts | 276° |
| 2026-05-04 02:12 | 26.92823 | 46.31069 | 27926 ft | 440 kts | 276° |
| 2026-05-04 02:12 | 26.93327 | 46.27688 | 27924 ft | 440 kts | 276° |
| 2026-05-04 02:13 | 26.93825 | 46.24344 | 27928 ft | 440 kts | 276° |
| 2026-05-04 02:13 | 26.94327 | 46.20957 | 27923 ft | 440 kts | 276° |
| 2026-05-04 02:13 | 26.94829 | 46.17566 | 27925 ft | 440 kts | 276° |
| 2026-05-04 02:13 | 26.95329 | 46.14184 | 27915 ft | 441 kts | 276° |
| 2026-05-04 02:14 | 26.95830 | 46.10787 | 27925 ft | 441 kts | 276° |
| 2026-05-04 02:14 | 26.96329 | 46.07398 | 27927 ft | 441 kts | 276° |
| 2026-05-04 02:14 | 26.96827 | 46.04005 | 27935 ft | 441 kts | 276° |
| 2026-05-04 02:14 | 26.97326 | 46.00602 | 27930 ft | 442 kts | 276° |
| 2026-05-04 02:15 | 26.97823 | 45.97209 | 27924 ft | 442 kts | 276° |
| 2026-05-04 02:15 | 26.98319 | 45.93810 | 27919 ft | 442 kts | 276° |
| 2026-05-04 02:15 | 26.98815 | 45.90411 | 27928 ft | 442 kts | 276° |
| 2026-05-04 02:15 | 26.99310 | 45.87010 | 27920 ft | 442 kts | 276° |
| 2026-05-04 02:16 | 26.99799 | 45.83649 | 27922 ft | 442 kts | 276° |
| 2026-05-04 02:16 | 27.00293 | 45.80245 | 27923 ft | 442 kts | 276° |
| 2026-05-04 02:16 | 27.00786 | 45.76839 | 27921 ft | 442 kts | 276° |
| 2026-05-04 02:16 | 27.01278 | 45.73435 | 27923 ft | 442 kts | 276° |
| 2026-05-04 02:17 | 27.01769 | 45.70034 | 27921 ft | 442 kts | 276° |
| 2026-05-04 02:17 | 27.02260 | 45.66632 | 27922 ft | 442 kts | 276° |
| 2026-05-04 02:17 | 27.02750 | 45.63224 | 27935 ft | 442 kts | 276° |
| 2026-05-04 02:17 | 27.03239 | 45.59821 | 27934 ft | 442 kts | 276° |
| 2026-05-04 02:18 | 27.03728 | 45.56413 | 27922 ft | 442 kts | 276° |
| 2026-05-04 02:18 | 27.04210 | 45.53003 | 27918 ft | 442 kts | 276° |
| 2026-05-04 02:18 | 27.04688 | 45.49591 | 27925 ft | 442 kts | 276° |
| 2026-05-04 02:18 | 27.05164 | 45.46192 | 27918 ft | 442 kts | 276° |
| 2026-05-04 02:19 | 27.05623 | 45.42825 | 27919 ft | 441 kts | 275° |
| 2026-05-04 02:19 | 27.06028 | 45.39417 | 27917 ft | 441 kts | 274° |
| 2026-05-04 02:19 | 27.06403 | 45.36007 | 27915 ft | 440 kts | 274° |
| 2026-05-04 02:19 | 27.06769 | 45.32598 | 27917 ft | 440 kts | 274° |
| 2026-05-04 02:20 | 27.07136 | 45.29186 | 27915 ft | 440 kts | 274° |
| 2026-05-04 02:20 | 27.07508 | 45.25773 | 27920 ft | 440 kts | 274° |
| 2026-05-04 02:20 | 27.07883 | 45.22365 | 27926 ft | 440 kts | 274° |
| 2026-05-04 02:20 | 27.08261 | 45.18948 | 27929 ft | 441 kts | 274° |
| 2026-05-04 02:21 | 27.08639 | 45.15535 | 27918 ft | 441 kts | 274° |
| 2026-05-04 02:21 | 27.09018 | 45.12119 | 27915 ft | 440 kts | 274° |
| 2026-05-04 02:21 | 27.09396 | 45.08706 | 27910 ft | 440 kts | 274° |
| 2026-05-04 02:21 | 27.09772 | 45.05298 | 27915 ft | 440 kts | 274° |
| 2026-05-04 02:22 | 27.10147 | 45.01887 | 27920 ft | 440 kts | 274° |
| 2026-05-04 02:22 | 27.10520 | 44.98486 | 27916 ft | 440 kts | 274° |
| 2026-05-04 02:22 | 27.10894 | 44.95075 | 27913 ft | 440 kts | 274° |
| 2026-05-04 02:22 | 27.11265 | 44.91672 | 27897 ft | 439 kts | 274° |
| 2026-05-04 02:23 | 27.11636 | 44.88266 | 27905 ft | 439 kts | 274° |
| 2026-05-04 02:23 | 27.12006 | 44.84863 | 27919 ft | 439 kts | 274° |
| 2026-05-04 02:23 | 27.12370 | 44.81506 | 27910 ft | 439 kts | 274° |
| 2026-05-04 02:23 | 27.12743 | 44.78062 | 27905 ft | 439 kts | 274° |
| 2026-05-04 02:24 | 27.13111 | 44.74661 | 27913 ft | 439 kts | 274° |
| 2026-05-04 02:24 | 27.13473 | 44.71299 | 27909 ft | 439 kts | 274° |
| 2026-05-04 02:24 | 27.13839 | 44.67894 | 27911 ft | 439 kts | 274° |
| 2026-05-04 02:24 | 27.14202 | 44.64495 | 27907 ft | 439 kts | 274° |
| 2026-05-04 02:25 | 27.14566 | 44.61090 | 27928 ft | 439 kts | 274° |
| 2026-05-04 02:25 | 27.14928 | 44.57687 | 27904 ft | 439 kts | 274° |
| 2026-05-04 02:25 | 27.15291 | 44.54282 | 27898 ft | 439 kts | 274° |
| 2026-05-04 02:25 | 27.15652 | 44.50881 | 27915 ft | 439 kts | 274° |
| 2026-05-04 02:26 | 27.16012 | 44.47475 | 27912 ft | 439 kts | 274° |
| 2026-05-04 02:26 | 27.16372 | 44.44067 | 27913 ft | 439 kts | 274° |
| 2026-05-04 02:26 | 27.16731 | 44.40663 | 27921 ft | 439 kts | 274° |
| 2026-05-04 02:26 | 27.17089 | 44.37257 | 27927 ft | 439 kts | 274° |
| 2026-05-04 02:27 | 27.17439 | 44.33898 | 27921 ft | 439 kts | 273° |
| 2026-05-04 02:27 | 27.17791 | 44.30496 | 27927 ft | 439 kts | 273° |
| 2026-05-04 02:27 | 27.18143 | 44.27090 | 27925 ft | 438 kts | 273° |
| 2026-05-04 02:27 | 27.18493 | 44.23695 | 27926 ft | 438 kts | 273° |
| 2026-05-04 02:28 | 27.18842 | 44.20296 | 27947 ft | 438 kts | 273° |
| 2026-05-04 02:28 | 27.19191 | 44.16901 | 27921 ft | 437 kts | 273° |
| 2026-05-04 02:28 | 27.19538 | 44.13509 | 27931 ft | 437 kts | 273° |
| 2026-05-04 02:28 | 27.19885 | 44.10113 | 27929 ft | 437 kts | 273° |
| 2026-05-04 02:29 | 27.20230 | 44.06730 | 27931 ft | 436 kts | 273° |
| 2026-05-04 02:29 | 27.20574 | 44.03346 | 27946 ft | 436 kts | 273° |
| 2026-05-04 02:29 | 27.20918 | 43.99960 | 27940 ft | 436 kts | 273° |
| 2026-05-04 02:29 | 27.21260 | 43.96581 | 27940 ft | 435 kts | 273° |
| 2026-05-04 02:30 | 27.21601 | 43.93199 | 27938 ft | 435 kts | 273° |
| 2026-05-04 02:30 | 27.21941 | 43.89821 | 27947 ft | 435 kts | 273° |
| 2026-05-04 02:30 | 27.22280 | 43.86444 | 27943 ft | 435 kts | 273° |
| 2026-05-04 02:30 | 27.22618 | 43.83072 | 27941 ft | 435 kts | 273° |
| 2026-05-04 02:31 | 27.22955 | 43.79696 | 27950 ft | 435 kts | 273° |
| 2026-05-04 02:31 | 27.23292 | 43.76322 | 27947 ft | 435 kts | 273° |
| 2026-05-04 02:31 | 27.23628 | 43.72944 | 27949 ft | 435 kts | 273° |
| 2026-05-04 02:31 | 27.23963 | 43.69568 | 27944 ft | 435 kts | 273° |
| 2026-05-04 02:32 | 27.24299 | 43.66182 | 27949 ft | 435 kts | 273° |
| 2026-05-04 02:32 | 27.24634 | 43.62804 | 27966 ft | 435 kts | 272° |
| 2026-05-04 02:32 | 27.24966 | 43.59461 | 27959 ft | 435 kts | 272° |
| 2026-05-04 02:32 | 27.25300 | 43.56079 | 27952 ft | 435 kts | 272° |
| 2026-05-04 02:33 | 27.25634 | 43.52695 | 27952 ft | 435 kts | 272° |
| 2026-05-04 02:33 | 27.25965 | 43.49327 | 27953 ft | 434 kts | 272° |
| 2026-05-04 02:33 | 27.26296 | 43.45948 | 27953 ft | 434 kts | 272° |
| 2026-05-04 02:33 | 27.26626 | 43.42577 | 27972 ft | 434 kts | 272° |
| 2026-05-04 02:34 | 27.26954 | 43.39214 | 27964 ft | 433 kts | 272° |
| 2026-05-04 02:34 | 27.27282 | 43.35848 | 27956 ft | 433 kts | 272° |
| 2026-05-04 02:34 | 27.27608 | 43.32487 | 27957 ft | 432 kts | 272° |
| 2026-05-04 02:34 | 27.27933 | 43.29132 | 27958 ft | 432 kts | 272° |
| 2026-05-04 02:35 | 27.28257 | 43.25777 | 27964 ft | 432 kts | 272° |
| 2026-05-04 02:35 | 27.28580 | 43.22420 | 27975 ft | 432 kts | 272° |
| 2026-05-04 02:35 | 27.28902 | 43.19072 | 27968 ft | 431 kts | 272° |
| 2026-05-04 02:35 | 27.29223 | 43.15716 | 27962 ft | 431 kts | 272° |
| 2026-05-04 02:36 | 27.29543 | 43.12369 | 27967 ft | 431 kts | 272° |
| 2026-05-04 02:36 | 27.29863 | 43.09020 | 27965 ft | 430 kts | 272° |
| 2026-05-04 02:36 | 27.30181 | 43.05675 | 27956 ft | 430 kts | 272° |
| 2026-05-04 02:36 | 27.30499 | 43.02320 | 27973 ft | 431 kts | 272° |
| 2026-05-04 02:37 | 27.30815 | 42.98976 | 27984 ft | 431 kts | 272° |
| 2026-05-04 02:37 | 27.31131 | 42.95627 | 27977 ft | 431 kts | 272° |
| 2026-05-04 02:37 | 27.31447 | 42.92275 | 27973 ft | 431 kts | 272° |
| 2026-05-04 02:37 | 27.31761 | 42.88927 | 27973 ft | 431 kts | 272° |
| 2026-05-04 02:38 | 27.32075 | 42.85579 | 27978 ft | 431 kts | 272° |
| 2026-05-04 02:38 | 27.32388 | 42.82230 | 27978 ft | 431 kts | 272° |
| 2026-05-04 02:38 | 27.32699 | 42.78882 | 27979 ft | 431 kts | 272° |
| 2026-05-04 02:38 | 27.33011 | 42.75533 | 27980 ft | 430 kts | 272° |
| 2026-05-04 02:39 | 27.33321 | 42.72186 | 27979 ft | 430 kts | 272° |
| 2026-05-04 02:39 | 27.33631 | 42.68835 | 27986 ft | 430 kts | 272° |
| 2026-05-04 02:39 | 27.33939 | 42.65491 | 27988 ft | 430 kts | 272° |
| 2026-05-04 02:39 | 27.34246 | 42.62146 | 27986 ft | 430 kts | 272° |
| 2026-05-04 02:40 | 27.34553 | 42.58797 | 27999 ft | 430 kts | 272° |
| 2026-05-04 02:40 | 27.34856 | 42.55494 | 27993 ft | 430 kts | 272° |
| 2026-05-04 02:40 | 27.35165 | 42.52101 | 27990 ft | 430 kts | 272° |
| 2026-05-04 02:40 | 27.35466 | 42.48801 | 27992 ft | 430 kts | 272° |
| 2026-05-04 02:41 | 27.35770 | 42.45452 | 27997 ft | 430 kts | 272° |
| 2026-05-04 02:41 | 27.36072 | 42.42110 | 27999 ft | 429 kts | 272° |
| 2026-05-04 02:41 | 27.36671 | 42.35423 | 28007 ft | 429 kts | 272° |
| 2026-05-04 02:42 | 27.36969 | 42.32079 | 28000 ft | 429 kts | 272° |
| 2026-05-04 02:42 | 27.37265 | 42.28738 | 27985 ft | 429 kts | 272° |
| 2026-05-04 02:42 | 27.37857 | 42.22052 | 28006 ft | 429 kts | 272° |
| 2026-05-04 02:43 | 27.38447 | 42.15357 | 28019 ft | 430 kts | 271° |
| 2026-05-04 02:43 | 27.39032 | 42.08672 | 28023 ft | 429 kts | 271° |
| 2026-05-04 02:44 | 27.39615 | 42.01980 | 28031 ft | 429 kts | 271° |
| 2026-05-04 02:44 | 27.40195 | 41.95296 | 28037 ft | 429 kts | 271° |
| 2026-05-04 02:45 | 27.40769 | 41.88625 | 28030 ft | 428 kts | 271° |
| 2026-05-04 02:45 | 27.41340 | 41.81974 | 28043 ft | 426 kts | 271° |
| 2026-05-04 02:46 | 27.41905 | 41.75337 | 28053 ft | 426 kts | 271° |
| 2026-05-04 02:46 | 27.41706 | 41.68759 | 28061 ft | 419 kts | 258° |
| 2026-05-04 02:47 | 27.40239 | 41.62456 | 28042 ft | 418 kts | 247° |
| 2026-05-04 02:47 | 27.37834 | 41.56490 | 28053 ft | 419 kts | 245° |
| 2026-05-04 02:48 | 27.35398 | 41.50499 | 28054 ft | 421 kts | 245° |
| 2026-05-04 02:48 | 27.32975 | 41.44480 | 28051 ft | 423 kts | 245° |
| 2026-05-04 02:49 | 27.30964 | 41.39469 | 28054 ft | 423 kts | 245° |
| 2026-05-04 02:49 | 27.28150 | 41.32458 | 28054 ft | 423 kts | 245° |
| 2026-05-04 02:50 | 27.26119 | 41.27404 | 28047 ft | 423 kts | 246° |
| 2026-05-04 02:50 | 27.23698 | 41.21391 | 28056 ft | 422 kts | 245° |
| 2026-05-04 02:51 | 27.21274 | 41.15378 | 28043 ft | 422 kts | 245° |
| 2026-05-04 02:51 | 27.18866 | 41.09416 | 28051 ft | 422 kts | 245° |
| 2026-05-04 02:52 | 27.16438 | 41.03407 | 28040 ft | 422 kts | 245° |
| 2026-05-04 02:52 | 27.14009 | 40.97408 | 28044 ft | 421 kts | 245° |
| 2026-05-04 02:53 | 27.11576 | 40.91423 | 28036 ft | 421 kts | 245° |
| 2026-05-04 02:53 | 27.09139 | 40.85430 | 28042 ft | 422 kts | 245° |
| 2026-05-04 02:54 | 27.06693 | 40.79425 | 28037 ft | 423 kts | 245° |
| 2026-05-04 02:54 | 27.04244 | 40.73417 | 28040 ft | 424 kts | 245° |
| 2026-05-04 02:55 | 27.00558 | 40.64389 | 28039 ft | 424 kts | 245° |
| 2026-05-04 02:56 | 26.98113 | 40.58415 | 28038 ft | 424 kts | 245° |
| 2026-05-04 02:56 | 26.95650 | 40.52403 | 28031 ft | 424 kts | 245° |
| 2026-05-04 02:57 | 26.93185 | 40.46397 | 28042 ft | 424 kts | 245° |
| 2026-05-04 02:57 | 26.90718 | 40.40394 | 28013 ft | 424 kts | 245° |
| 2026-05-04 02:58 | 26.88249 | 40.34394 | 28027 ft | 424 kts | 245° |
| 2026-05-04 02:58 | 26.85776 | 40.28394 | 28034 ft | 424 kts | 245° |
| 2026-05-04 02:59 | 26.83296 | 40.22385 | 28040 ft | 425 kts | 245° |
| 2026-05-04 02:59 | 26.80825 | 40.16409 | 28036 ft | 425 kts | 245° |
| 2026-05-04 03:00 | 26.78338 | 40.10401 | 28033 ft | 425 kts | 245° |
| 2026-05-04 03:00 | 26.75849 | 40.04400 | 28041 ft | 425 kts | 245° |
| 2026-05-04 03:01 | 26.73363 | 39.98410 | 28044 ft | 424 kts | 245° |
| 2026-05-04 03:01 | 26.70876 | 39.92427 | 28033 ft | 423 kts | 245° |
| 2026-05-04 03:02 | 26.68387 | 39.86450 | 28036 ft | 423 kts | 245° |
| 2026-05-04 03:02 | 26.65918 | 39.80530 | 28046 ft | 423 kts | 245° |
| 2026-05-04 03:03 | 26.63430 | 39.74570 | 28037 ft | 423 kts | 245° |
| 2026-05-04 03:03 | 26.60937 | 39.68608 | 28038 ft | 424 kts | 245° |
| 2026-05-04 03:04 | 26.58434 | 39.62631 | 28029 ft | 424 kts | 245° |
| 2026-05-04 03:04 | 26.55927 | 39.56653 | 28039 ft | 425 kts | 245° |
| 2026-05-04 03:05 | 26.53411 | 39.50660 | 28034 ft | 426 kts | 245° |
| 2026-05-04 03:05 | 26.50888 | 39.44662 | 28013 ft | 427 kts | 245° |
| 2026-05-04 03:06 | 26.48363 | 39.38662 | 28028 ft | 427 kts | 245° |
| 2026-05-04 03:06 | 26.45835 | 39.32665 | 28023 ft | 428 kts | 245° |
| 2026-05-04 03:07 | 26.43895 | 39.26437 | 28025 ft | 429 kts | 254° |
| 2026-05-04 03:07 | 26.42768 | 39.19900 | 28021 ft | 431 kts | 262° |
| 2026-05-04 03:08 | 26.42235 | 39.13231 | 28023 ft | 431 kts | 262° |
| 2026-05-04 03:08 | 26.41713 | 39.06564 | 28003 ft | 431 kts | 262° |
| 2026-05-04 03:09 | 26.41172 | 38.99888 | 28015 ft | 431 kts | 262° |
| 2026-05-04 03:09 | 26.40619 | 38.93229 | 28013 ft | 431 kts | 262° |
| 2026-05-04 03:10 | 26.40061 | 38.86572 | 28024 ft | 431 kts | 262° |
| 2026-05-04 03:10 | 26.39500 | 38.79920 | 28004 ft | 431 kts | 262° |
| 2026-05-04 03:11 | 26.38936 | 38.73266 | 28001 ft | 430 kts | 262° |
| 2026-05-04 03:11 | 26.38370 | 38.66624 | 28006 ft | 430 kts | 262° |
| 2026-05-04 03:12 | 26.37800 | 38.59977 | 28003 ft | 430 kts | 262° |
| 2026-05-04 03:12 | 26.37515 | 38.56656 | 27994 ft | 430 kts | 262° |
| 2026-05-04 03:12 | 26.37232 | 38.53383 | 27988 ft | 430 kts | 262° |
| 2026-05-04 03:12 | 26.36945 | 38.50061 | 27995 ft | 430 kts | 262° |
| 2026-05-04 03:13 | 26.36657 | 38.46744 | 27976 ft | 429 kts | 262° |
| 2026-05-04 03:13 | 26.36369 | 38.43427 | 27975 ft | 429 kts | 262° |
| 2026-05-04 03:13 | 26.36080 | 38.40115 | 27982 ft | 429 kts | 262° |
| 2026-05-04 03:13 | 26.35790 | 38.36803 | 27976 ft | 429 kts | 262° |
| 2026-05-04 03:14 | 26.35500 | 38.33491 | 27979 ft | 429 kts | 262° |
| 2026-05-04 03:14 | 26.35210 | 38.30185 | 27989 ft | 429 kts | 262° |
| 2026-05-04 03:14 | 26.34919 | 38.26875 | 27983 ft | 429 kts | 262° |
| 2026-05-04 03:14 | 26.34626 | 38.23565 | 27988 ft | 429 kts | 262° |
| 2026-05-04 03:15 | 26.34327 | 38.20248 | 27985 ft | 429 kts | 262° |
| 2026-05-04 03:15 | 26.34026 | 38.16938 | 27997 ft | 429 kts | 262° |
| 2026-05-04 03:15 | 26.33723 | 38.13634 | 27991 ft | 429 kts | 262° |
| 2026-05-04 03:15 | 26.33420 | 38.10322 | 27963 ft | 429 kts | 262° |
| 2026-05-04 03:16 | 26.33119 | 38.07026 | 28003 ft | 428 kts | 262° |
| 2026-05-04 03:16 | 26.32814 | 38.03715 | 27985 ft | 428 kts | 262° |
| 2026-05-04 03:16 | 26.32508 | 38.00412 | 27980 ft | 428 kts | 262° |
| 2026-05-04 03:16 | 26.32207 | 37.97157 | 27987 ft | 428 kts | 262° |
| 2026-05-04 03:17 | 26.31903 | 37.93858 | 27968 ft | 428 kts | 262° |
| 2026-05-04 03:17 | 26.31599 | 37.90563 | 27975 ft | 428 kts | 262° |
| 2026-05-04 03:17 | 26.31292 | 37.87266 | 27966 ft | 428 kts | 262° |
| 2026-05-04 03:17 | 26.30985 | 37.83962 | 27965 ft | 428 kts | 262° |
| 2026-05-04 03:18 | 26.30677 | 37.80652 | 27973 ft | 429 kts | 262° |
| 2026-05-04 03:18 | 26.30367 | 37.77344 | 27969 ft | 429 kts | 262° |
| 2026-05-04 03:18 | 26.30058 | 37.74033 | 27972 ft | 430 kts | 262° |
| 2026-05-04 03:18 | 26.29750 | 37.70720 | 27995 ft | 430 kts | 262° |
| 2026-05-04 03:19 | 26.29443 | 37.67410 | 27969 ft | 429 kts | 262° |
| 2026-05-04 03:19 | 26.29140 | 37.64109 | 27965 ft | 428 kts | 262° |
| 2026-05-04 03:19 | 26.28832 | 37.60810 | 27979 ft | 427 kts | 262° |
| 2026-05-04 03:19 | 26.28520 | 37.57521 | 27974 ft | 427 kts | 262° |
| 2026-05-04 03:20 | 26.28208 | 37.54227 | 27984 ft | 427 kts | 262° |
| 2026-05-04 03:20 | 26.27896 | 37.50929 | 27980 ft | 427 kts | 262° |
| 2026-05-04 03:20 | 26.27586 | 37.47638 | 27976 ft | 428 kts | 262° |
| 2026-05-04 03:20 | 26.27275 | 37.44343 | 27979 ft | 428 kts | 262° |
| 2026-05-04 03:21 | 26.26966 | 37.41094 | 27973 ft | 427 kts | 262° |
| 2026-05-04 03:21 | 26.26654 | 37.37806 | 27975 ft | 426 kts | 262° |
| 2026-05-04 03:21 | 26.26342 | 37.34522 | 27961 ft | 426 kts | 262° |
| 2026-05-04 03:21 | 26.26029 | 37.31246 | 27954 ft | 425 kts | 262° |
| 2026-05-04 03:22 | 26.25715 | 37.27975 | 27918 ft | 424 kts | 262° |
| 2026-05-04 03:22 | 26.25403 | 37.24714 | 27946 ft | 423 kts | 262° |
| 2026-05-04 03:22 | 26.25088 | 37.21451 | 27956 ft | 423 kts | 262° |
| 2026-05-04 03:22 | 26.24774 | 37.18196 | 27965 ft | 423 kts | 262° |
| 2026-05-04 03:23 | 26.24459 | 37.14938 | 27934 ft | 423 kts | 262° |
| 2026-05-04 03:23 | 26.24143 | 37.11679 | 27933 ft | 423 kts | 262° |
| 2026-05-04 03:23 | 26.23826 | 37.08423 | 27931 ft | 423 kts | 262° |
| 2026-05-04 03:23 | 26.23508 | 37.05161 | 27926 ft | 423 kts | 262° |
| 2026-05-04 03:24 | 26.23190 | 37.01904 | 27912 ft | 423 kts | 262° |
| 2026-05-04 03:24 | 26.22871 | 36.98649 | 27935 ft | 423 kts | 262° |
| 2026-05-04 03:24 | 26.22553 | 36.95398 | 27924 ft | 422 kts | 262° |
| 2026-05-04 03:24 | 26.22233 | 36.92147 | 27913 ft | 422 kts | 262° |
| 2026-05-04 03:25 | 26.21914 | 36.88899 | 27908 ft | 422 kts | 262° |
| 2026-05-04 03:25 | 26.21593 | 36.85651 | 27920 ft | 422 kts | 262° |
| 2026-05-04 03:25 | 26.21270 | 36.82403 | 27900 ft | 422 kts | 262° |
| 2026-05-04 03:25 | 26.20948 | 36.79155 | 27909 ft | 422 kts | 262° |
| 2026-05-04 03:26 | 26.20624 | 36.75903 | 27905 ft | 422 kts | 262° |
| 2026-05-04 03:26 | 26.20300 | 36.72654 | 27913 ft | 422 kts | 262° |
| 2026-05-04 03:26 | 26.19975 | 36.69402 | 27908 ft | 422 kts | 262° |
| 2026-05-04 03:26 | 26.19650 | 36.66152 | 27878 ft | 422 kts | 262° |
| 2026-05-04 03:27 | 26.19324 | 36.62904 | 27879 ft | 422 kts | 262° |
| 2026-05-04 03:27 | 26.18998 | 36.59655 | 27888 ft | 422 kts | 262° |
| 2026-05-04 03:27 | 26.18670 | 36.56409 | 27895 ft | 422 kts | 262° |
| 2026-05-04 03:27 | 26.18473 | 36.53209 | 27901 ft | 421 kts | 270° |
| 2026-05-04 03:28 | 26.19035 | 36.49984 | 27931 ft | 429 kts | 283° |
| 2026-05-04 03:28 | 26.20182 | 36.46885 | 27910 ft | 437 kts | 291° |
| 2026-05-04 03:28 | 26.21836 | 36.44008 | 27900 ft | 447 kts | 304° |
| 2026-05-04 03:28 | 26.23988 | 36.41470 | 27937 ft | 452 kts | 307° |
| 2026-05-04 03:29 | 26.26219 | 36.38981 | 27909 ft | 455 kts | 308° |
| 2026-05-04 03:29 | 26.28466 | 36.36490 | 27957 ft | 456 kts | 308° |
| 2026-05-04 03:29 | 26.30703 | 36.33991 | 27926 ft | 456 kts | 308° |
| 2026-05-04 03:29 | 26.32929 | 36.31476 | 27917 ft | 455 kts | 307° |
| 2026-05-04 03:30 | 26.35136 | 36.28958 | 27893 ft | 453 kts | 307° |
| 2026-05-04 03:30 | 26.37327 | 36.26441 | 27919 ft | 452 kts | 307° |
| 2026-05-04 03:30 | 26.39507 | 36.23925 | 27920 ft | 450 kts | 307° |
| 2026-05-04 03:30 | 26.41680 | 36.21414 | 27911 ft | 449 kts | 307° |
| 2026-05-04 03:31 | 26.43845 | 36.18907 | 27905 ft | 448 kts | 307° |
| 2026-05-04 03:31 | 26.46003 | 36.16409 | 27906 ft | 447 kts | 307° |
| 2026-05-04 03:31 | 26.48155 | 36.13916 | 27907 ft | 446 kts | 307° |
| 2026-05-04 03:31 | 26.50281 | 36.11453 | 27908 ft | 445 kts | 307° |
| 2026-05-04 03:32 | 26.52456 | 36.08933 | 27920 ft | 445 kts | 307° |
| 2026-05-04 03:32 | 26.54605 | 36.06439 | 27913 ft | 446 kts | 307° |
| 2026-05-04 03:32 | 26.56756 | 36.03943 | 27913 ft | 446 kts | 307° |
| 2026-05-04 03:32 | 26.58881 | 36.01476 | 27916 ft | 447 kts | 307° |
| 2026-05-04 03:33 | 26.61035 | 35.98974 | 27915 ft | 447 kts | 307° |
| 2026-05-04 03:33 | 26.63191 | 35.96468 | 27920 ft | 448 kts | 307° |
| 2026-05-04 03:33 | 26.65351 | 35.93957 | 27922 ft | 448 kts | 307° |
| 2026-05-04 03:33 | 26.67511 | 35.91444 | 27934 ft | 449 kts | 307° |
| 2026-05-04 03:34 | 26.69677 | 35.88922 | 27931 ft | 449 kts | 307° |
| 2026-05-04 03:34 | 26.71844 | 35.86397 | 27924 ft | 450 kts | 307° |
| 2026-05-04 03:34 | 26.74014 | 35.83869 | 27927 ft | 450 kts | 307° |
| 2026-05-04 03:34 | 26.76183 | 35.81339 | 27923 ft | 450 kts | 307° |
| 2026-05-04 03:35 | 26.78348 | 35.78814 | 27925 ft | 450 kts | 307° |
| 2026-05-04 03:35 | 26.80518 | 35.76281 | 27926 ft | 450 kts | 307° |
| 2026-05-04 03:35 | 26.82686 | 35.73750 | 27934 ft | 450 kts | 307° |
| 2026-05-04 03:35 | 26.84848 | 35.71224 | 27927 ft | 450 kts | 307° |
| 2026-05-04 03:36 | 26.86987 | 35.68723 | 27930 ft | 449 kts | 307° |
| 2026-05-04 03:36 | 26.89148 | 35.66195 | 27927 ft | 449 kts | 307° |
| 2026-05-04 03:36 | 26.91311 | 35.63661 | 27930 ft | 449 kts | 307° |
| 2026-05-04 03:36 | 26.92740 | 35.61988 | 27931 ft | 449 kts | 307° |
| 2026-05-04 03:37 | 26.94902 | 35.59454 | 27931 ft | 448 kts | 307° |
| 2026-05-04 03:37 | 26.97056 | 35.56927 | 27931 ft | 448 kts | 307° |
| 2026-05-04 03:37 | 26.99206 | 35.54404 | 27934 ft | 448 kts | 307° |
| 2026-05-04 03:37 | 27.01364 | 35.51869 | 27935 ft | 448 kts | 307° |
| 2026-05-04 03:38 | 27.03517 | 35.49340 | 27981 ft | 448 kts | 306° |
| 2026-05-04 03:38 | 27.05675 | 35.46803 | 27947 ft | 449 kts | 306° |
| 2026-05-04 03:38 | 27.07829 | 35.44269 | 27953 ft | 449 kts | 306° |
| 2026-05-04 03:38 | 27.09981 | 35.41735 | 27945 ft | 449 kts | 306° |
| 2026-05-04 03:39 | 27.12139 | 35.39194 | 27953 ft | 448 kts | 306° |
| 2026-05-04 03:39 | 27.14290 | 35.36659 | 27952 ft | 448 kts | 306° |
| 2026-05-04 03:39 | 27.16440 | 35.34124 | 27939 ft | 448 kts | 306° |
| 2026-05-04 03:39 | 27.18592 | 35.31585 | 27957 ft | 448 kts | 306° |
| 2026-05-04 03:40 | 27.20739 | 35.29051 | 27938 ft | 448 kts | 306° |
| 2026-05-04 03:40 | 27.22890 | 35.26510 | 27957 ft | 448 kts | 306° |
| 2026-05-04 03:40 | 27.25037 | 35.23971 | 27943 ft | 448 kts | 306° |
| 2026-05-04 03:40 | 27.27187 | 35.21429 | 27958 ft | 448 kts | 306° |
| 2026-05-04 03:41 | 27.29333 | 35.18889 | 27958 ft | 449 kts | 306° |
| 2026-05-04 03:41 | 27.31458 | 35.16373 | 27941 ft | 449 kts | 306° |
| 2026-05-04 03:41 | 27.33608 | 35.13825 | 27964 ft | 449 kts | 306° |
| 2026-05-04 03:41 | 27.35758 | 35.11275 | 27959 ft | 449 kts | 306° |
| 2026-05-04 03:42 | 27.37909 | 35.08724 | 27960 ft | 449 kts | 306° |
| 2026-05-04 03:42 | 27.40059 | 35.06172 | 27959 ft | 450 kts | 306° |
| 2026-05-04 03:42 | 27.42212 | 35.03614 | 27968 ft | 450 kts | 306° |
| 2026-05-04 03:42 | 27.44367 | 35.01053 | 27968 ft | 450 kts | 306° |
| 2026-05-04 03:43 | 27.46520 | 34.98492 | 27972 ft | 450 kts | 306° |
| 2026-05-04 03:43 | 27.48674 | 34.95929 | 27964 ft | 451 kts | 306° |
| 2026-05-04 03:43 | 27.50828 | 34.93367 | 27958 ft | 451 kts | 306° |
| 2026-05-04 03:43 | 27.53062 | 34.90876 | 27952 ft | 453 kts | 309° |
| 2026-05-04 03:44 | 27.55360 | 34.88440 | 27955 ft | 454 kts | 309° |
| 2026-05-04 03:44 | 27.57678 | 34.86012 | 27954 ft | 454 kts | 309° |
| 2026-05-04 03:44 | 27.59991 | 34.83591 | 27955 ft | 454 kts | 309° |
| 2026-05-04 03:44 | 27.62301 | 34.81166 | 27955 ft | 454 kts | 309° |
| 2026-05-04 03:45 | 27.64608 | 34.78735 | 27952 ft | 453 kts | 309° |
| 2026-05-04 03:45 | 27.66911 | 34.76301 | 27952 ft | 453 kts | 309° |
| 2026-05-04 03:45 | 27.69209 | 34.73867 | 27949 ft | 453 kts | 309° |
| 2026-05-04 03:45 | 27.71507 | 34.71428 | 27954 ft | 453 kts | 309° |
| 2026-05-04 03:46 | 27.73807 | 34.68987 | 27951 ft | 454 kts | 309° |
| 2026-05-04 03:46 | 27.76104 | 34.66546 | 27950 ft | 454 kts | 309° |
| 2026-05-04 03:46 | 27.78408 | 34.64098 | 27958 ft | 454 kts | 309° |
| 2026-05-04 03:46 | 27.80708 | 34.61653 | 27957 ft | 454 kts | 309° |
| 2026-05-04 03:47 | 27.82979 | 34.59236 | 27957 ft | 454 kts | 309° |
| 2026-05-04 03:47 | 27.85283 | 34.56784 | 27959 ft | 454 kts | 309° |
| 2026-05-04 03:47 | 27.87588 | 34.54328 | 27961 ft | 454 kts | 309° |
| 2026-05-04 03:47 | 27.89886 | 34.51878 | 27964 ft | 454 kts | 309° |
| 2026-05-04 03:48 | 27.92184 | 34.49428 | 27966 ft | 454 kts | 309° |
| 2026-05-04 03:48 | 27.94482 | 34.46976 | 27981 ft | 454 kts | 309° |
| 2026-05-04 03:48 | 27.96780 | 34.44524 | 27973 ft | 454 kts | 309° |
| 2026-05-04 03:48 | 27.99070 | 34.42069 | 27966 ft | 452 kts | 308° |
| 2026-05-04 03:49 | 28.01202 | 34.39485 | 27961 ft | 446 kts | 302° |
| 2026-05-04 03:49 | 28.03149 | 34.36765 | 27970 ft | 444 kts | 302° |
| 2026-05-04 03:49 | 28.05091 | 34.34047 | 27985 ft | 444 kts | 302° |
| 2026-05-04 03:49 | 28.07034 | 34.31334 | 27967 ft | 444 kts | 302° |
| 2026-05-04 03:50 | 28.08985 | 34.28619 | 27978 ft | 444 kts | 302° |
| 2026-05-04 03:50 | 28.10943 | 34.25900 | 27977 ft | 445 kts | 302° |
| 2026-05-04 03:50 | 28.12903 | 34.23182 | 27970 ft | 446 kts | 302° |
| 2026-05-04 03:51 | 28.16818 | 34.17753 | 27982 ft | 444 kts | 302° |
| 2026-05-04 03:51 | 28.18749 | 34.15081 | 27981 ft | 443 kts | 302° |
| 2026-05-04 03:51 | 28.20699 | 34.12375 | 27983 ft | 441 kts | 302° |
| 2026-05-04 03:52 | 28.24566 | 34.06995 | 28012 ft | 438 kts | 302° |
| 2026-05-04 03:52 | 28.26491 | 34.04312 | 27981 ft | 437 kts | 301° |
| 2026-05-04 03:52 | 28.28409 | 34.01646 | 28001 ft | 434 kts | 301° |
| 2026-05-04 03:53 | 28.32224 | 33.96326 | 28028 ft | 439 kts | 301° |
| 2026-05-04 03:53 | 28.36103 | 33.90900 | 28029 ft | 442 kts | 302° |
| 2026-05-04 03:54 | 28.39969 | 33.85513 | 28017 ft | 437 kts | 302° |
| 2026-05-04 03:54 | 28.43754 | 33.80217 | 28018 ft | 433 kts | 301° |
| 2026-05-04 03:55 | 28.47545 | 33.74903 | 28048 ft | 433 kts | 302° |
| 2026-05-04 03:55 | 28.51350 | 33.69557 | 28054 ft | 439 kts | 301° |
| 2026-05-04 03:56 | 28.55202 | 33.64150 | 28080 ft | 438 kts | 302° |
| 2026-05-04 03:56 | 28.59006 | 33.58799 | 28039 ft | 433 kts | 301° |
| 2026-05-04 03:57 | 28.62814 | 33.53427 | 28043 ft | 438 kts | 301° |
| 2026-05-04 03:57 | 28.66652 | 33.48013 | 28060 ft | 440 kts | 301° |
| 2026-05-04 03:58 | 28.72438 | 33.39856 | 28057 ft | 441 kts | 301° |
| 2026-05-04 03:58 | 28.76287 | 33.34422 | 28057 ft | 440 kts | 301° |
| 2026-05-04 03:59 | 28.80118 | 33.29001 | 28059 ft | 438 kts | 301° |
| 2026-05-04 03:59 | 28.83937 | 33.23589 | 28062 ft | 438 kts | 301° |
| 2026-05-04 04:00 | 28.87732 | 33.18205 | 28071 ft | 437 kts | 301° |
| 2026-05-04 04:00 | 28.91538 | 33.12798 | 28085 ft | 437 kts | 301° |
| 2026-05-04 04:01 | 28.95341 | 33.07388 | 28076 ft | 436 kts | 301° |
| 2026-05-04 04:01 | 28.99135 | 33.01984 | 28082 ft | 436 kts | 301° |
| 2026-05-04 04:02 | 29.02927 | 32.96574 | 28088 ft | 436 kts | 301° |
| 2026-05-04 04:02 | 29.06721 | 32.91156 | 28088 ft | 436 kts | 301° |
| 2026-05-04 04:03 | 29.10510 | 32.85739 | 28091 ft | 436 kts | 301° |
| 2026-05-04 04:03 | 29.14290 | 32.80327 | 28085 ft | 435 kts | 301° |
| 2026-05-04 04:04 | 29.18070 | 32.74907 | 28089 ft | 435 kts | 301° |
| 2026-05-04 04:04 | 29.21839 | 32.69496 | 28093 ft | 434 kts | 301° |
| 2026-05-04 04:05 | 29.25601 | 32.64087 | 28090 ft | 434 kts | 301° |
| 2026-05-04 04:05 | 29.29335 | 32.58710 | 28102 ft | 434 kts | 301° |
| 2026-05-04 04:06 | 29.33060 | 32.53291 | 28106 ft | 432 kts | 300° |
| 2026-05-04 04:06 | 29.36771 | 32.47879 | 28114 ft | 430 kts | 300° |
| 2026-05-04 04:07 | 29.40454 | 32.42492 | 28098 ft | 429 kts | 300° |
| 2026-05-04 04:07 | 29.44130 | 32.37111 | 28095 ft | 427 kts | 300° |
| 2026-05-04 04:08 | 29.47792 | 32.31749 | 28098 ft | 427 kts | 300° |
| 2026-05-04 04:08 | 29.51445 | 32.26396 | 28096 ft | 425 kts | 300° |
| 2026-05-04 04:09 | 29.55079 | 32.21063 | 28109 ft | 423 kts | 300° |
| 2026-05-04 04:09 | 29.58702 | 32.15737 | 28121 ft | 423 kts | 300° |
| 2026-05-04 04:10 | 29.62325 | 32.10401 | 28109 ft | 423 kts | 300° |
| 2026-05-04 04:10 | 29.65926 | 32.05093 | 28120 ft | 423 kts | 301° |
| 2026-05-04 04:11 | 29.69541 | 31.99759 | 28109 ft | 422 kts | 301° |
| 2026-05-04 04:11 | 29.73150 | 31.94427 | 28102 ft | 422 kts | 300° |
| 2026-05-04 04:12 | 29.76755 | 31.89093 | 28124 ft | 421 kts | 300° |
| 2026-05-04 04:12 | 29.80315 | 31.83741 | 28103 ft | 419 kts | 299° |
| 2026-05-04 04:13 | 29.83768 | 31.78351 | 28113 ft | 417 kts | 299° |
| 2026-05-04 04:13 | 29.87210 | 31.72978 | 28100 ft | 416 kts | 299° |
| 2026-05-04 04:14 | 29.90650 | 31.67626 | 28094 ft | 415 kts | 299° |
| 2026-05-04 04:14 | 29.94065 | 31.62325 | 28094 ft | 414 kts | 299° |
| 2026-05-04 04:15 | 29.97508 | 31.56988 | 28083 ft | 415 kts | 299° |
| 2026-05-04 04:15 | 30.00951 | 31.51641 | 28118 ft | 415 kts | 299° |
| 2026-05-04 04:16 | 30.04396 | 31.46287 | 28085 ft | 415 kts | 299° |
| 2026-05-04 04:16 | 30.07836 | 31.40944 | 28074 ft | 414 kts | 300° |
| 2026-05-04 04:17 | 30.11766 | 31.35978 | 28077 ft | 424 kts | 309° |
| 2026-05-04 04:17 | 30.16085 | 31.31414 | 28118 ft | 423 kts | 309° |
| 2026-05-04 04:18 | 30.20413 | 31.26787 | 28087 ft | 423 kts | 308° |
| 2026-05-04 04:18 | 30.24727 | 31.22153 | 28099 ft | 424 kts | 309° |
| 2026-05-04 04:19 | 30.29049 | 31.17504 | 28089 ft | 424 kts | 309° |
| 2026-05-04 04:19 | 30.33368 | 31.12851 | 28087 ft | 424 kts | 309° |
| 2026-05-04 04:20 | 30.37691 | 31.08190 | 28086 ft | 425 kts | 309° |
| 2026-05-04 04:20 | 30.42012 | 31.03525 | 28092 ft | 425 kts | 309° |
| 2026-05-04 04:21 | 30.45632 | 30.99612 | 28089 ft | 425 kts | 308° |
| 2026-05-04 04:21 | 30.49951 | 30.94938 | 28140 ft | 425 kts | 309° |
| 2026-05-04 04:22 | 30.54265 | 30.90260 | 28101 ft | 428 kts | 309° |
| 2026-05-04 04:22 | 30.58629 | 30.85524 | 28088 ft | 430 kts | 309° |
| 2026-05-04 04:23 | 30.63014 | 30.80762 | 28089 ft | 431 kts | 309° |
| 2026-05-04 04:23 | 30.67398 | 30.75995 | 28085 ft | 431 kts | 309° |
| 2026-05-04 04:24 | 30.71767 | 30.71236 | 28078 ft | 430 kts | 309° |
| 2026-05-04 04:24 | 30.76127 | 30.66483 | 28076 ft | 429 kts | 309° |
| 2026-05-04 04:25 | 30.80452 | 30.61759 | 28077 ft | 429 kts | 309° |
| 2026-05-04 04:25 | 30.84802 | 30.57001 | 28100 ft | 429 kts | 308° |
| 2026-05-04 04:26 | 30.89145 | 30.52246 | 28078 ft | 428 kts | 308° |
| 2026-05-04 04:26 | 30.93479 | 30.47494 | 28069 ft | 427 kts | 308° |
| 2026-05-04 04:27 | 30.97774 | 30.42778 | 28068 ft | 427 kts | 308° |
| 2026-05-04 04:27 | 31.02092 | 30.38030 | 28073 ft | 426 kts | 309° |
| 2026-05-04 04:28 | 31.06340 | 30.33237 | 28046 ft | 420 kts | 303° |
| 2026-05-04 04:28 | 31.09515 | 30.27668 | 28067 ft | 409 kts | 292° |
| 2026-05-04 04:29 | 31.11625 | 30.21588 | 28069 ft | 402 kts | 283° |
| 2026-05-04 04:29 | 31.13286 | 30.15348 | 28064 ft | 403 kts | 283° |
| 2026-05-04 04:30 | 31.14981 | 30.09107 | 28080 ft | 404 kts | 284° |
| 2026-05-04 04:30 | 31.16684 | 30.02878 | 28064 ft | 402 kts | 284° |
| 2026-05-04 04:31 | 31.19080 | 29.97007 | 28056 ft | 410 kts | 302° |
| 2026-05-04 04:31 | 31.23199 | 29.92249 | 28043 ft | 428 kts | 318° |
| 2026-05-04 04:32 | 31.28512 | 29.88885 | 28054 ft | 437 kts | 323° |
| 2026-05-04 04:32 | 31.33917 | 29.85609 | 28029 ft | 438 kts | 323° |
| 2026-05-04 04:33 | 31.39293 | 29.82291 | 28090 ft | 437 kts | 322° |
| 2026-05-04 04:33 | 31.44606 | 29.78973 | 28059 ft | 434 kts | 322° |
| 2026-05-04 04:34 | 31.49919 | 29.75639 | 28044 ft | 432 kts | 322° |
| 2026-05-04 04:34 | 31.55206 | 29.72315 | 28077 ft | 430 kts | 322° |
| 2026-05-04 04:35 | 31.60476 | 29.68998 | 28059 ft | 429 kts | 322° |
| 2026-05-04 04:35 | 31.65726 | 29.65691 | 28054 ft | 428 kts | 322° |
| 2026-05-04 04:36 | 31.70971 | 29.62381 | 28051 ft | 428 kts | 322° |
| 2026-05-04 04:36 | 31.76194 | 29.59081 | 28055 ft | 429 kts | 322° |
| 2026-05-04 04:37 | 31.86730 | 29.52413 | 28061 ft | 430 kts | 322° |
| 2026-05-04 04:38 | 31.91994 | 29.49078 | 28061 ft | 428 kts | 322° |
| 2026-05-04 04:38 | 31.97235 | 29.45751 | 28053 ft | 427 kts | 322° |
| 2026-05-04 04:39 | 32.02465 | 29.42424 | 28050 ft | 426 kts | 322° |
| 2026-05-04 04:39 | 32.07673 | 29.39096 | 28052 ft | 426 kts | 322° |
| 2026-05-04 04:40 | 32.12885 | 29.35759 | 28069 ft | 427 kts | 322° |
| 2026-05-04 04:40 | 32.18088 | 29.32425 | 28051 ft | 428 kts | 322° |
| 2026-05-04 04:41 | 32.23334 | 29.29063 | 28044 ft | 428 kts | 322° |
| 2026-05-04 04:41 | 32.28574 | 29.25707 | 28046 ft | 428 kts | 322° |
| 2026-05-04 04:42 | 32.33813 | 29.22344 | 28041 ft | 428 kts | 323° |
| 2026-05-04 04:42 | 32.39037 | 29.18994 | 28052 ft | 426 kts | 323° |
| 2026-05-04 04:43 | 32.44232 | 29.15654 | 28042 ft | 425 kts | 322° |
| 2026-05-04 04:43 | 32.49390 | 29.12332 | 28044 ft | 424 kts | 322° |
| 2026-05-04 04:44 | 32.54570 | 29.08990 | 28052 ft | 424 kts | 322° |
| 2026-05-04 04:44 | 32.59760 | 29.05637 | 28053 ft | 425 kts | 322° |
| 2026-05-04 04:45 | 32.64947 | 29.02282 | 28051 ft | 425 kts | 322° |
| 2026-05-04 04:47 | 32.82966 | 28.90602 | 28035 ft | 416 kts | 323° |
| 2026-05-04 04:47 | 32.88028 | 28.87308 | 28042 ft | 414 kts | 323° |
| 2026-05-04 04:48 | 32.93043 | 28.84039 | 28040 ft | 413 kts | 323° |
| 2026-05-04 04:49 | 33.05700 | 28.75772 | 28037 ft | 416 kts | 323° |
| 2026-05-04 04:49 | 33.10774 | 28.72453 | 28038 ft | 416 kts | 323° |
| 2026-05-04 04:50 | 33.15844 | 28.69130 | 28032 ft | 415 kts | 323° |
| 2026-05-04 04:50 | 33.20914 | 28.65802 | 28039 ft | 415 kts | 323° |
| 2026-05-04 04:51 | 33.25967 | 28.62479 | 28058 ft | 414 kts | 324° |
| 2026-05-04 04:51 | 33.31005 | 28.59171 | 28045 ft | 411 kts | 324° |
| 2026-05-04 04:52 | 33.36001 | 28.55883 | 28041 ft | 409 kts | 324° |
| 2026-05-04 04:52 | 33.40949 | 28.52618 | 28039 ft | 408 kts | 324° |
| 2026-05-04 04:53 | 33.45914 | 28.49337 | 28032 ft | 407 kts | 324° |
| 2026-05-04 04:53 | 33.50889 | 28.46044 | 28027 ft | 408 kts | 324° |
| 2026-05-04 04:54 | 33.55842 | 28.42763 | 28029 ft | 409 kts | 324° |
| 2026-05-04 04:54 | 33.60823 | 28.39461 | 28022 ft | 409 kts | 324° |
| 2026-05-04 04:55 | 33.65791 | 28.36162 | 28025 ft | 408 kts | 324° |
| 2026-05-04 04:55 | 33.70749 | 28.32865 | 28021 ft | 407 kts | 324° |
| 2026-05-04 04:56 | 33.75699 | 28.29570 | 28023 ft | 406 kts | 324° |
| 2026-05-04 04:56 | 33.80639 | 28.26275 | 28063 ft | 406 kts | 325° |
| 2026-05-04 04:57 | 33.85578 | 28.22949 | 28029 ft | 408 kts | 324° |
| 2026-05-04 04:57 | 33.90503 | 28.19619 | 28018 ft | 409 kts | 324° |
| 2026-05-04 04:58 | 33.95470 | 28.16257 | 28031 ft | 409 kts | 324° |
| 2026-05-04 04:58 | 34.00437 | 28.12894 | 28021 ft | 410 kts | 324° |
| 2026-05-04 04:59 | 34.05406 | 28.09525 | 28016 ft | 409 kts | 324° |
| 2026-05-04 04:59 | 34.10389 | 28.06140 | 28028 ft | 414 kts | 326° |
| 2026-05-04 05:00 | 34.15406 | 28.02729 | 28018 ft | 412 kts | 326° |
| 2026-05-04 05:01 | 34.22839 | 27.97667 | 28024 ft | 410 kts | 326° |
| 2026-05-04 05:01 | 34.27818 | 27.94269 | 28016 ft | 410 kts | 326° |
| 2026-05-04 05:02 | 34.32793 | 27.90870 | 28015 ft | 411 kts | 326° |
| 2026-05-04 05:02 | 34.37789 | 27.87452 | 28023 ft | 416 kts | 326° |
| 2026-05-04 05:03 | 34.42888 | 27.83955 | 28018 ft | 422 kts | 326° |
| 2026-05-04 05:04 | 34.53028 | 27.76997 | 28011 ft | 418 kts | 326° |
| 2026-05-04 05:04 | 34.58102 | 27.73499 | 28011 ft | 418 kts | 326° |
| 2026-05-04 05:06 | 34.76142 | 27.61001 | 28016 ft | 432 kts | 327° |
| 2026-05-04 05:06 | 34.78751 | 27.59190 | 28019 ft | 431 kts | 327° |
| 2026-05-04 05:07 | 34.83945 | 27.55580 | 28010 ft | 430 kts | 327° |
| 2026-05-04 05:07 | 34.89132 | 27.51968 | 28015 ft | 429 kts | 327° |
| 2026-05-04 05:09 | 35.11874 | 27.36067 | 28002 ft | 434 kts | 327° |
| 2026-05-04 05:10 | 35.14495 | 27.34228 | 27997 ft | 434 kts | 327° |
| 2026-05-04 05:10 | 35.17117 | 27.32386 | 27999 ft | 435 kts | 327° |
| 2026-05-04 05:10 | 35.19739 | 27.30544 | 27995 ft | 435 kts | 327° |
| 2026-05-04 05:10 | 35.22360 | 27.28700 | 27996 ft | 435 kts | 327° |
| 2026-05-04 05:11 | 35.24981 | 27.26856 | 27987 ft | 435 kts | 327° |
| 2026-05-04 05:11 | 35.27602 | 27.25010 | 27992 ft | 435 kts | 327° |
| 2026-05-04 05:11 | 35.30194 | 27.23183 | 27990 ft | 435 kts | 327° |
| 2026-05-04 05:11 | 35.32820 | 27.21330 | 27992 ft | 435 kts | 327° |
| 2026-05-04 05:12 | 35.35441 | 27.19480 | 27992 ft | 434 kts | 327° |
| 2026-05-04 05:12 | 35.38061 | 27.17629 | 27992 ft | 434 kts | 327° |
| 2026-05-04 05:12 | 35.43289 | 27.13942 | 28005 ft | 432 kts | 328° |
| 2026-05-04 05:13 | 35.45918 | 27.12150 | 27998 ft | 434 kts | 329° |
| 2026-05-04 05:13 | 35.48582 | 27.10367 | 27998 ft | 439 kts | 329° |
| 2026-05-04 05:13 | 35.53941 | 27.06800 | 27996 ft | 440 kts | 329° |
| 2026-05-04 05:14 | 35.59319 | 27.03206 | 27995 ft | 439 kts | 329° |
| 2026-05-04 05:14 | 35.61998 | 27.01407 | 27997 ft | 439 kts | 329° |
| 2026-05-04 05:14 | 35.64670 | 26.99609 | 27998 ft | 438 kts | 329° |
| 2026-05-04 05:15 | 35.70017 | 26.96003 | 28020 ft | 438 kts | 329° |
| 2026-05-04 05:15 | 35.75380 | 26.92376 | 28025 ft | 444 kts | 329° |
| 2026-05-04 05:16 | 35.80797 | 26.88711 | 28014 ft | 446 kts | 329° |
| 2026-05-04 05:16 | 35.86236 | 26.85026 | 28015 ft | 444 kts | 329° |
| 2026-05-04 05:17 | 35.91622 | 26.81371 | 28031 ft | 440 kts | 329° |
| 2026-05-04 05:17 | 35.96983 | 26.77727 | 28035 ft | 439 kts | 329° |
| 2026-05-04 05:18 | 36.02355 | 26.74067 | 28053 ft | 445 kts | 329° |
| 2026-05-04 05:18 | 36.07812 | 26.70345 | 28053 ft | 450 kts | 330° |
| 2026-05-04 05:19 | 36.13262 | 26.66622 | 28040 ft | 447 kts | 329° |
| 2026-05-04 05:19 | 36.18707 | 26.62899 | 28031 ft | 441 kts | 329° |
| 2026-05-04 05:20 | 36.24069 | 26.59224 | 28051 ft | 446 kts | 329° |
| 2026-05-04 05:20 | 36.29520 | 26.55481 | 28050 ft | 450 kts | 330° |
| 2026-05-04 05:21 | 36.34957 | 26.51745 | 28038 ft | 444 kts | 329° |
| 2026-05-04 05:21 | 36.40332 | 26.48045 | 28052 ft | 439 kts | 329° |
| 2026-05-04 05:22 | 36.45700 | 26.44341 | 28057 ft | 444 kts | 329° |
| 2026-05-04 05:22 | 36.51149 | 26.40576 | 28057 ft | 450 kts | 330° |
| 2026-05-04 05:23 | 36.56611 | 26.36797 | 28066 ft | 449 kts | 329° |
| 2026-05-04 05:23 | 36.62035 | 26.33040 | 28070 ft | 442 kts | 329° |
| 2026-05-04 05:24 | 36.67454 | 26.29277 | 28052 ft | 449 kts | 329° |
| 2026-05-04 05:24 | 36.72964 | 26.25444 | 28070 ft | 456 kts | 330° |
| 2026-05-04 05:25 | 36.78403 | 26.21659 | 28083 ft | 442 kts | 330° |
| 2026-05-04 05:25 | 36.83748 | 26.17931 | 28073 ft | 441 kts | 330° |
| 2026-05-04 05:26 | 36.89185 | 26.14130 | 28058 ft | 451 kts | 330° |
| 2026-05-04 05:26 | 36.94678 | 26.10286 | 28080 ft | 451 kts | 330° |
| 2026-05-04 05:28 | 37.16420 | 25.95006 | 28080 ft | 452 kts | 330° |
| 2026-05-04 05:29 | 37.21837 | 25.91183 | 28068 ft | 446 kts | 330° |
| 2026-05-04 05:29 | 37.27217 | 25.87381 | 28077 ft | 446 kts | 330° |
| 2026-05-04 05:31 | 37.49064 | 25.71873 | 28080 ft | 452 kts | 330° |
| 2026-05-04 05:32 | 37.54535 | 25.67973 | 28085 ft | 452 kts | 330° |
| 2026-05-04 05:33 | 37.62819 | 25.62054 | 28086 ft | 454 kts | 330° |
| 2026-05-04 05:33 | 37.68183 | 25.58214 | 28073 ft | 443 kts | 330° |
| 2026-05-04 05:34 | 37.73611 | 25.54321 | 28090 ft | 452 kts | 330° |
| 2026-05-04 05:34 | 37.79113 | 25.50369 | 28104 ft | 454 kts | 330° |
| 2026-05-04 05:35 | 37.84553 | 25.46454 | 28110 ft | 447 kts | 330° |
| 2026-05-04 05:35 | 37.89945 | 25.42567 | 28099 ft | 445 kts | 330° |
| 2026-05-04 05:36 | 37.95390 | 25.38636 | 28109 ft | 452 kts | 330° |
| 2026-05-04 05:36 | 38.00865 | 25.34676 | 28122 ft | 456 kts | 330° |
| 2026-05-04 05:37 | 38.06299 | 25.30739 | 28113 ft | 446 kts | 330° |
| 2026-05-04 05:37 | 38.11702 | 25.26817 | 28116 ft | 450 kts | 330° |
| 2026-05-04 05:38 | 38.19911 | 25.20847 | 28121 ft | 454 kts | 330° |
| 2026-05-04 05:38 | 38.25395 | 25.16848 | 28122 ft | 453 kts | 330° |
| 2026-05-04 05:39 | 38.33571 | 25.10875 | 28115 ft | 449 kts | 330° |
| 2026-05-04 05:40 | 38.41761 | 25.04876 | 28122 ft | 456 kts | 330° |
| 2026-05-04 05:40 | 38.47262 | 25.00838 | 28113 ft | 453 kts | 330° |
| 2026-05-04 05:41 | 38.52705 | 24.96835 | 28122 ft | 450 kts | 330° |
| 2026-05-04 05:41 | 38.58134 | 24.92835 | 28124 ft | 451 kts | 330° |
| 2026-05-04 05:42 | 38.63587 | 24.88811 | 28128 ft | 455 kts | 330° |
| 2026-05-04 05:42 | 38.69082 | 24.84749 | 28134 ft | 458 kts | 330° |
| 2026-05-04 05:43 | 38.74604 | 24.80659 | 28133 ft | 458 kts | 330° |
| 2026-05-04 05:45 | 38.96587 | 24.64302 | 28135 ft | 456 kts | 331° |
| 2026-05-04 05:47 | 39.18627 | 24.47785 | 28146 ft | 461 kts | 331° |
| 2026-05-04 05:47 | 39.24183 | 24.43603 | 28152 ft | 461 kts | 331° |
| 2026-05-04 05:48 | 39.29736 | 24.39415 | 28141 ft | 463 kts | 330° |
| 2026-05-04 05:48 | 39.35285 | 24.35220 | 28139 ft | 461 kts | 330° |
| 2026-05-04 05:49 | 39.40776 | 24.31064 | 28136 ft | 460 kts | 330° |
| 2026-05-04 05:49 | 39.46297 | 24.26877 | 28147 ft | 459 kts | 330° |
| 2026-05-04 05:51 | 39.68441 | 24.10003 | 28160 ft | 464 kts | 330° |
| 2026-05-04 05:52 | 39.73073 | 24.06457 | 28144 ft | 465 kts | 330° |
| 2026-05-04 05:52 | 39.78629 | 24.02196 | 28156 ft | 461 kts | 330° |
| 2026-05-04 05:54 | 40.00544 | 23.85313 | 28160 ft | 459 kts | 330° |
| 2026-05-04 05:55 | 40.06050 | 23.81051 | 28161 ft | 461 kts | 330° |
| 2026-05-04 05:55 | 40.11571 | 23.76768 | 28154 ft | 463 kts | 330° |
| 2026-05-04 05:56 | 40.17084 | 23.72484 | 28160 ft | 455 kts | 331° |
| 2026-05-04 05:56 | 40.22473 | 23.68287 | 28166 ft | 449 kts | 331° |
| 2026-05-04 05:57 | 40.27866 | 23.64083 | 28162 ft | 452 kts | 331° |
| 2026-05-04 05:57 | 40.33279 | 23.59853 | 28165 ft | 454 kts | 330° |
| 2026-05-04 05:58 | 40.38674 | 23.55629 | 28181 ft | 454 kts | 330° |
| 2026-05-04 05:58 | 40.44099 | 23.51374 | 28168 ft | 454 kts | 330° |
| 2026-05-04 05:59 | 40.49515 | 23.47117 | 28182 ft | 454 kts | 330° |
| 2026-05-04 05:59 | 40.54928 | 23.42856 | 28161 ft | 453 kts | 330° |
| 2026-05-04 06:00 | 40.60264 | 23.38643 | 28161 ft | 442 kts | 331° |
| 2026-05-04 06:00 | 40.65543 | 23.34473 | 28202 ft | 444 kts | 331° |
| 2026-05-04 06:01 | 40.70860 | 23.30264 | 28181 ft | 447 kts | 331° |
| 2026-05-04 06:03 | 40.92127 | 23.13342 | 28180 ft | 446 kts | 331° |
| 2026-05-04 06:05 | 41.14461 | 22.92076 | 28192 ft | 451 kts | 314° |
| 2026-05-04 06:06 | 41.18476 | 22.85652 | 28178 ft | 453 kts | 314° |
| 2026-05-04 06:06 | 41.22522 | 22.79236 | 28188 ft | 453 kts | 314° |
| 2026-05-04 06:07 | 41.26546 | 22.72959 | 28169 ft | 434 kts | 317° |
| 2026-05-04 06:07 | 41.30600 | 22.67056 | 28180 ft | 434 kts | 318° |
| 2026-05-04 06:08 | 41.34675 | 22.61182 | 28190 ft | 436 kts | 317° |
| 2026-05-04 06:08 | 41.38781 | 22.55197 | 28197 ft | 439 kts | 317° |
| 2026-05-04 06:09 | 41.42892 | 22.49161 | 28191 ft | 441 kts | 317° |
| 2026-05-04 06:11 | 41.59116 | 22.25181 | 28210 ft | 434 kts | 317° |
| 2026-05-04 06:13 | 41.75276 | 22.01107 | 28207 ft | 437 kts | 317° |
| 2026-05-04 06:14 | 41.89436 | 21.79849 | 28207 ft | 437 kts | 317° |
| 2026-05-04 06:15 | 41.93475 | 21.73757 | 28223 ft | 437 kts | 317° |
| 2026-05-04 06:15 | 41.97524 | 21.67639 | 28219 ft | 439 kts | 317° |
| 2026-05-04 06:16 | 42.01593 | 21.61478 | 28207 ft | 441 kts | 317° |
| 2026-05-04 06:16 | 42.05667 | 21.55293 | 28192 ft | 441 kts | 317° |
| 2026-05-04 06:17 | 42.09708 | 21.49146 | 28209 ft | 440 kts | 317° |
| 2026-05-04 06:17 | 42.13768 | 21.42959 | 28213 ft | 440 kts | 317° |
| 2026-05-04 06:18 | 42.17805 | 21.36751 | 28201 ft | 441 kts | 316° |
| 2026-05-04 06:20 | 42.33726 | 21.11414 | 28178 ft | 443 kts | 315° |
| 2026-05-04 06:21 | 42.43665 | 20.95520 | 28206 ft | 445 kts | 315° |
| 2026-05-04 06:22 | 42.47651 | 20.89119 | 28203 ft | 444 kts | 315° |
| 2026-05-04 06:25 | 42.75495 | 20.44031 | 28190 ft | 445 kts | 314° |
| 2026-05-04 06:26 | 42.79463 | 20.37549 | 28197 ft | 445 kts | 314° |
| 2026-05-04 06:26 | 42.83436 | 20.31048 | 28215 ft | 447 kts | 314° |
| 2026-05-04 06:27 | 42.93580 | 20.14873 | 28214 ft | 450 kts | 314° |
| 2026-05-04 06:28 | 42.97648 | 20.08377 | 28229 ft | 448 kts | 314° |
| 2026-05-04 06:28 | 43.01694 | 20.01895 | 28212 ft | 448 kts | 314° |
| 2026-05-04 06:29 | 43.05735 | 19.95407 | 28238 ft | 448 kts | 314° |
| 2026-05-04 06:29 | 43.09747 | 19.88940 | 28221 ft | 448 kts | 314° |
| 2026-05-04 06:30 | 43.13780 | 19.82432 | 28220 ft | 449 kts | 314° |
| 2026-05-04 06:30 | 43.17817 | 19.75901 | 28230 ft | 449 kts | 314° |
| 2026-05-04 06:31 | 43.21845 | 19.69373 | 28228 ft | 448 kts | 314° |
| 2026-05-04 06:31 | 43.25868 | 19.62837 | 28218 ft | 448 kts | 313° |
| 2026-05-04 06:33 | 43.41902 | 19.36637 | 28222 ft | 448 kts | 313° |
| 2026-05-04 06:34 | 43.45916 | 19.30040 | 28223 ft | 449 kts | 313° |
| 2026-05-04 06:34 | 43.49931 | 19.23430 | 28219 ft | 450 kts | 313° |
| 2026-05-04 06:36 | 43.65892 | 18.96985 | 28213 ft | 450 kts | 313° |
| 2026-05-04 06:37 | 43.69890 | 18.90326 | 28211 ft | 450 kts | 312° |
| 2026-05-04 06:37 | 43.73890 | 18.83656 | 28208 ft | 451 kts | 312° |
| 2026-05-04 06:38 | 43.77217 | 18.78087 | 28205 ft | 451 kts | 312° |
| 2026-05-04 06:40 | 43.93164 | 18.51254 | 28218 ft | 451 kts | 312° |
| 2026-05-04 06:40 | 43.97125 | 18.44548 | 28196 ft | 451 kts | 312° |
| 2026-05-04 06:41 | 44.01105 | 18.37799 | 28192 ft | 452 kts | 312° |
| 2026-05-04 06:41 | 44.05085 | 18.31032 | 28210 ft | 452 kts | 311° |
| 2026-05-04 06:42 | 44.09063 | 18.24252 | 28207 ft | 452 kts | 311° |
| 2026-05-04 06:44 | 44.24955 | 17.97003 | 28180 ft | 454 kts | 311° |
| 2026-05-04 06:44 | 44.28902 | 17.90197 | 28181 ft | 454 kts | 311° |
| 2026-05-04 06:45 | 44.32879 | 17.83319 | 28174 ft | 455 kts | 311° |
| 2026-05-04 06:45 | 44.36848 | 17.76442 | 28152 ft | 454 kts | 311° |
| 2026-05-04 06:46 | 44.40911 | 17.69691 | 28174 ft | 453 kts | 313° |
| 2026-05-04 06:46 | 44.45069 | 17.63036 | 28160 ft | 454 kts | 313° |
| 2026-05-04 06:48 | 44.61546 | 17.36183 | 28165 ft | 456 kts | 312° |
| 2026-05-04 06:50 | 44.78241 | 17.09173 | 28154 ft | 459 kts | 312° |
| 2026-05-04 06:51 | 44.82399 | 17.02422 | 28154 ft | 459 kts | 312° |
| 2026-05-04 06:51 | 44.86543 | 16.95573 | 28134 ft | 459 kts | 310° |
| 2026-05-04 06:52 | 44.90621 | 16.88617 | 28152 ft | 460 kts | 310° |
| 2026-05-04 06:52 | 44.94698 | 16.81647 | 28137 ft | 461 kts | 310° |
| 2026-05-04 06:53 | 44.98790 | 16.74664 | 28149 ft | 461 kts | 310° |
| 2026-05-04 06:53 | 45.02883 | 16.67669 | 28137 ft | 462 kts | 310° |
| 2026-05-04 06:54 | 45.06974 | 16.60661 | 28149 ft | 462 kts | 310° |
| 2026-05-04 06:54 | 45.11061 | 16.53641 | 28136 ft | 463 kts | 310° |
| 2026-05-04 06:55 | 45.15150 | 16.46600 | 28143 ft | 463 kts | 310° |
| 2026-05-04 06:55 | 45.19201 | 16.39509 | 28145 ft | 463 kts | 309° |
| 2026-05-04 06:57 | 45.35307 | 16.10977 | 28139 ft | 464 kts | 309° |
| 2026-05-04 06:58 | 45.39337 | 16.03804 | 28130 ft | 464 kts | 309° |
| 2026-05-04 06:58 | 45.43369 | 15.96608 | 28139 ft | 465 kts | 309° |
| 2026-05-04 06:59 | 45.47406 | 15.89383 | 28143 ft | 466 kts | 308° |
| 2026-05-04 06:59 | 45.51418 | 15.82186 | 28137 ft | 466 kts | 308° |
| 2026-05-04 07:01 | 45.67545 | 15.53066 | 28138 ft | 467 kts | 308° |
| 2026-05-04 07:02 | 45.71566 | 15.45758 | 28132 ft | 468 kts | 308° |
| 2026-05-04 07:02 | 45.75586 | 15.38434 | 28131 ft | 468 kts | 308° |
| 2026-05-04 07:03 | 45.79598 | 15.31106 | 28136 ft | 468 kts | 308° |
| 2026-05-04 07:03 | 45.83585 | 15.23803 | 28131 ft | 468 kts | 308° |
| 2026-05-04 07:04 | 45.87586 | 15.16453 | 28131 ft | 467 kts | 308° |
| 2026-05-04 07:04 | 45.91587 | 15.09084 | 28128 ft | 467 kts | 307° |
| 2026-05-04 07:05 | 45.95580 | 15.01711 | 28134 ft | 467 kts | 307° |
| 2026-05-04 07:05 | 45.99560 | 14.94342 | 28128 ft | 467 kts | 307° |
| 2026-05-04 07:06 | 46.05533 | 14.83246 | 28132 ft | 468 kts | 307° |
| 2026-05-04 07:07 | 46.09522 | 14.75827 | 28133 ft | 468 kts | 307° |
| 2026-05-04 07:09 | 46.25616 | 14.46443 | 28134 ft | 466 kts | 308° |
| 2026-05-04 07:09 | 46.29625 | 14.39061 | 28126 ft | 466 kts | 307° |
| 2026-05-04 07:10 | 46.33632 | 14.31665 | 28129 ft | 466 kts | 307° |
| 2026-05-04 07:12 | 46.49622 | 14.02097 | 28118 ft | 464 kts | 310° |
| 2026-05-04 07:12 | 46.54073 | 13.95307 | 28124 ft | 464 kts | 313° |
| 2026-05-04 07:13 | 46.58573 | 13.88593 | 28115 ft | 464 kts | 313° |
| 2026-05-04 07:13 | 46.63026 | 13.81881 | 28121 ft | 464 kts | 313° |
| 2026-05-04 07:14 | 46.74174 | 13.64861 | 28108 ft | 464 kts | 313° |
| 2026-05-04 07:15 | 46.78621 | 13.58039 | 28118 ft | 464 kts | 312° |
| 2026-05-04 07:15 | 46.83070 | 13.51193 | 28123 ft | 464 kts | 312° |
| 2026-05-04 07:16 | 46.87518 | 13.44334 | 28119 ft | 465 kts | 312° |
| 2026-05-04 07:16 | 46.91938 | 13.37499 | 28119 ft | 466 kts | 312° |
| 2026-05-04 07:17 | 46.96393 | 13.30594 | 28109 ft | 467 kts | 312° |
| 2026-05-04 07:17 | 47.00849 | 13.23670 | 28107 ft | 467 kts | 311° |
| 2026-05-04 07:18 | 47.05302 | 13.16729 | 28110 ft | 467 kts | 311° |
| 2026-05-04 07:18 | 47.09757 | 13.09768 | 28089 ft | 466 kts | 311° |
| 2026-05-04 07:19 | 47.14194 | 13.02824 | 28097 ft | 466 kts | 311° |
| 2026-05-04 07:19 | 47.18620 | 12.95870 | 28086 ft | 466 kts | 311° |
| 2026-05-04 07:20 | 47.23051 | 12.88892 | 28087 ft | 467 kts | 311° |
| 2026-05-04 07:20 | 47.27449 | 12.81947 | 28074 ft | 466 kts | 311° |
| 2026-05-04 07:22 | 47.45084 | 12.53920 | 28059 ft | 466 kts | 311° |
| 2026-05-04 07:23 | 47.49484 | 12.46883 | 28060 ft | 466 kts | 311° |
| 2026-05-04 07:23 | 47.53136 | 12.41026 | 28052 ft | 466 kts | 311° |
| 2026-05-04 07:24 | 47.57532 | 12.33960 | 28070 ft | 466 kts | 310° |
| 2026-05-04 07:24 | 47.61928 | 12.26874 | 28033 ft | 467 kts | 310° |
| 2026-05-04 07:26 | 47.76091 | 11.94783 | 28053 ft | 465 kts | 300° |
| 2026-05-04 07:27 | 47.79494 | 11.86594 | 28050 ft | 465 kts | 300° |
| 2026-05-04 07:27 | 47.82888 | 11.78408 | 28049 ft | 465 kts | 300° |
| 2026-05-04 07:28 | 47.86255 | 11.70261 | 28034 ft | 464 kts | 300° |
| 2026-05-04 07:28 | 47.89633 | 11.62059 | 28034 ft | 464 kts | 299° |
| 2026-05-04 07:29 | 47.93007 | 11.53843 | 28061 ft | 464 kts | 299° |
| 2026-05-04 07:29 | 47.96375 | 11.45617 | 28046 ft | 464 kts | 299° |
| 2026-05-04 07:30 | 47.99737 | 11.37381 | 28065 ft | 464 kts | 299° |
| 2026-05-04 07:30 | 48.03092 | 11.29134 | 28045 ft | 464 kts | 299° |
| 2026-05-04 07:31 | 48.06424 | 11.20920 | 28045 ft | 464 kts | 299° |
| 2026-05-04 07:33 | 48.19756 | 10.87804 | 28046 ft | 463 kts | 298° |
| 2026-05-04 07:33 | 48.23047 | 10.79566 | 28047 ft | 463 kts | 298° |
| 2026-05-04 07:34 | 48.26346 | 10.71278 | 28054 ft | 463 kts | 298° |
| 2026-05-04 07:34 | 48.29644 | 10.62976 | 28049 ft | 463 kts | 298° |
| 2026-05-04 07:35 | 48.32941 | 10.54644 | 28039 ft | 464 kts | 298° |
| 2026-05-04 07:35 | 48.36233 | 10.46301 | 28050 ft | 464 kts | 298° |
| 2026-05-04 07:36 | 48.39518 | 10.37948 | 28060 ft | 464 kts | 298° |
| 2026-05-04 07:38 | 48.52633 | 10.04341 | 28042 ft | 465 kts | 297° |
| 2026-05-04 07:38 | 48.55899 | 9.95903 | 28054 ft | 466 kts | 297° |
| 2026-05-04 07:39 | 48.59164 | 9.87443 | 28037 ft | 466 kts | 297° |
| 2026-05-04 07:39 | 48.62405 | 9.79018 | 28034 ft | 467 kts | 297° |
| 2026-05-04 07:40 | 48.65667 | 9.70513 | 28025 ft | 467 kts | 297° |
| 2026-05-04 07:40 | 48.69213 | 9.62274 | 28033 ft | 469 kts | 304° |
| 2026-05-04 07:41 | 48.73183 | 9.54411 | 28024 ft | 470 kts | 304° |
| 2026-05-04 07:41 | 48.77148 | 9.46536 | 28019 ft | 469 kts | 303° |
| 2026-05-04 07:42 | 48.81086 | 9.38627 | 28015 ft | 470 kts | 303° |
| 2026-05-04 07:42 | 48.85010 | 9.30693 | 28020 ft | 470 kts | 303° |
| 2026-05-04 07:43 | 48.88929 | 9.22745 | 28038 ft | 470 kts | 303° |
| 2026-05-04 07:43 | 48.92842 | 9.14786 | 28018 ft | 470 kts | 303° |
| 2026-05-04 07:44 | 48.96749 | 9.06818 | 28020 ft | 470 kts | 303° |
| 2026-05-04 07:44 | 49.00653 | 8.98831 | 28012 ft | 469 kts | 303° |
| 2026-05-04 07:45 | 49.04541 | 8.90856 | 28008 ft | 469 kts | 303° |
| 2026-05-04 07:45 | 49.08421 | 8.82870 | 28029 ft | 468 kts | 302° |
| 2026-05-04 07:46 | 49.12275 | 8.74915 | 28027 ft | 469 kts | 302° |
| 2026-05-04 07:46 | 49.16147 | 8.66900 | 28020 ft | 469 kts | 302° |
| 2026-05-04 07:47 | 49.20015 | 8.58869 | 28013 ft | 469 kts | 302° |
| 2026-05-04 07:49 | 49.35418 | 8.26645 | 28015 ft | 468 kts | 302° |
| 2026-05-04 07:49 | 49.39254 | 8.18557 | 28016 ft | 468 kts | 302° |
| 2026-05-04 07:50 | 49.43079 | 8.10468 | 28011 ft | 468 kts | 302° |
| 2026-05-04 07:50 | 49.46899 | 8.02365 | 28034 ft | 468 kts | 301° |
| 2026-05-04 07:51 | 49.50696 | 7.94289 | 28017 ft | 469 kts | 301° |
| 2026-05-04 07:51 | 49.54516 | 7.86141 | 28014 ft | 469 kts | 301° |
| 2026-05-04 07:52 | 49.58326 | 7.77986 | 28011 ft | 468 kts | 301° |
| 2026-05-04 07:52 | 49.62129 | 7.69825 | 28005 ft | 468 kts | 301° |
| 2026-05-04 07:54 | 49.77278 | 7.37048 | 28011 ft | 468 kts | 301° |
| 2026-05-04 07:55 | 49.81046 | 7.28832 | 28004 ft | 469 kts | 301° |
| 2026-05-04 07:55 | 49.84816 | 7.20586 | 28008 ft | 469 kts | 300° |
| 2026-05-04 07:56 | 49.88581 | 7.12326 | 27998 ft | 469 kts | 300° |
| 2026-05-04 07:56 | 49.90460 | 7.08194 | 27989 ft | 469 kts | 300° |
| 2026-05-04 07:56 | 49.92338 | 7.04059 | 28016 ft | 469 kts | 300° |
| 2026-05-04 07:57 | 49.96092 | 6.95771 | 27995 ft | 469 kts | 300° |
| 2026-05-04 07:57 | 50.00298 | 6.86457 | 27997 ft | 469 kts | 300° |
| 2026-05-04 07:57 | 50.09706 | 6.65498 | 27989 ft | 469 kts | 300° |
| 2026-05-04 07:58 | 50.23659 | 6.31995 | 27895 ft | 461 kts | 291° |
| 2026-05-04 07:58 | 50.36128 | 5.96708 | 28035 ft | 466 kts | 296° |
| 2026-05-04 07:58 | 50.47673 | 5.67265 | 27990 ft | 465 kts | 295° |
| 2026-05-04 07:59 | 50.72459 | 5.01746 | 28005 ft | 463 kts | 295° |
| 2026-05-04 07:59 | 50.98719 | 4.31540 | 28014 ft | 465 kts | 296° |
| 2026-05-04 08:00 | 51.12093 | 3.96485 | 27973 ft | 464 kts | 295° |
| 2026-05-04 08:00 | 51.25363 | 3.61080 | 27977 ft | 465 kts | 295° |
| 2026-05-04 08:00 | 51.37669 | 3.25139 | 27817 ft | 450 kts | 283° |
| 2026-05-04 08:02 | 51.74647 | 1.56345 | 26547 ft | 415 kts | 259° |
| 2026-05-04 08:02 | 51.74226 | 1.51735 | 25711 ft | 417 kts | 259° |
| 2026-05-04 08:02 | 51.73871 | 1.47076 | 25003 ft | 418 kts | 261° |
| 2026-05-04 08:03 | 51.73562 | 1.42477 | 24450 ft | 415 kts | 262° |
| 2026-05-04 08:03 | 51.73264 | 1.37861 | 23937 ft | 411 kts | 263° |
| 2026-05-04 08:03 | 51.72971 | 1.33298 | 23384 ft | 408 kts | 263° |
| 2026-05-04 08:03 | 51.72676 | 1.28761 | 22731 ft | 405 kts | 263° |
| 2026-05-04 08:04 | 51.72378 | 1.24242 | 22081 ft | 404 kts | 263° |
| 2026-05-04 08:04 | 51.72078 | 1.19744 | 21444 ft | 402 kts | 262° |
| 2026-05-04 08:04 | 51.71776 | 1.15266 | 20842 ft | 401 kts | 262° |
| 2026-05-04 08:04 | 51.71473 | 1.10814 | 20263 ft | 399 kts | 262° |
| 2026-05-04 08:05 | 51.71170 | 1.06375 | 19694 ft | 398 kts | 262° |
| 2026-05-04 08:05 | 51.70868 | 1.01955 | 19143 ft | 396 kts | 262° |
| 2026-05-04 08:05 | 51.70563 | 0.97550 | 18593 ft | 395 kts | 262° |
| 2026-05-04 08:05 | 51.70257 | 0.93145 | 17943 ft | 395 kts | 262° |
| 2026-05-04 08:06 | 51.69952 | 0.88759 | 17339 ft | 393 kts | 262° |
| 2026-05-04 08:06 | 51.69750 | 0.85859 | 16998 ft | 391 kts | 262° |
| 2026-05-04 08:06 | 51.69447 | 0.81527 | 16501 ft | 387 kts | 262° |
| 2026-05-04 08:06 | 51.69147 | 0.77239 | 15991 ft | 383 kts | 262° |
| 2026-05-04 08:08 | 51.67194 | 0.49948 | 14261 ft | 292 kts | 262° |
| 2026-05-04 08:08 | 51.66959 | 0.46746 | 13636 ft | 284 kts | 262° |
| 2026-05-04 08:10 | 51.65228 | 0.23439 | 8749 ft | 240 kts | 262° |
| 2026-05-04 08:11 | 51.65025 | 0.20754 | 8267 ft | 245 kts | 262° |
| 2026-05-04 08:11 | 51.64512 | 0.15260 | 7312 ft | 248 kts | 252° |
| 2026-05-04 08:11 | 51.63986 | 0.12610 | 6876 ft | 249 kts | 251° |
| 2026-05-04 08:12 | 51.63409 | 0.09988 | 6408 ft | 248 kts | 242° |
| 2026-05-04 08:12 | 51.62300 | 0.07933 | 5908 ft | 250 kts | 212° |
| 2026-05-04 08:12 | 51.60662 | 0.07046 | 5411 ft | 253 kts | 182° |
| 2026-05-04 08:12 | 51.58935 | 0.07461 | 4968 ft | 252 kts | 164° |
| 2026-05-04 08:13 | 51.57470 | 0.08196 | 4583 ft | 252 kts | 162° |
| 2026-05-04 08:13 | 51.55778 | 0.08615 | 4136 ft | 246 kts | 186° |
| 2026-05-04 08:13 | 51.54196 | 0.07643 | 3641 ft | 246 kts | 218° |
| 2026-05-04 08:13 | 51.52998 | 0.05699 | 3207 ft | 244 kts | 232° |
| 2026-05-04 08:14 | 51.52008 | 0.03538 | 2995 ft | 234 kts | 235° |
| 2026-05-04 08:14 | 51.51104 | 0.01465 | 2988 ft | 224 kts | 236° |
| 2026-05-04 08:14 | 51.50217 | -0.00583 | 2988 ft | 223 kts | 236° |
| 2026-05-04 08:16 | 51.47849 | -0.16024 | 3008 ft | 202 kts | 270° |
| 2026-05-04 08:16 | 51.47844 | -0.18266 | 3000 ft | 204 kts | 270° |
| 2026-05-04 08:16 | 51.47838 | -0.20550 | 2946 ft | 207 kts | 270° |
| 2026-05-04 08:17 | 51.47831 | -0.22867 | 2634 ft | 204 kts | 270° |
| 2026-05-04 08:17 | 51.47824 | -0.25075 | 2378 ft | 194 kts | 270° |
| 2026-05-04 08:17 | 51.47817 | -0.27191 | 2100 ft | 186 kts | 270° |
| 2026-05-04 08:17 | 51.47810 | -0.29194 | 1847 ft | 172 kts | 270° |
| 2026-05-04 08:19 | 51.47764 | -0.41475 | 368 ft | 150 kts | 273° |
| 2026-05-04 08:19 | 51.47765 | -0.43174 | 181 ft | 154 kts | 273° |
| 2026-05-04 08:20 | 51.47765 | -0.44868 | 93 ft | 144 kts | 269° |
| 2026-05-04 08:20 | 51.47761 | -0.46286 | 94 ft | 109 kts | 270° |
| 2026-05-04 08:20 | 51.47756 | -0.47306 | 93 ft | 74 kts | 269° |
| 2026-05-04 08:20 | 51.47754 | -0.47946 | 91 ft | 48 kts | 270° |
| 2026-05-04 08:21 | 51.47751 | -0.48450 | 94 ft | 43 kts | 269° |
| 2026-05-04 08:21 | 51.47750 | -0.48901 | 91 ft | 20 kts | 270° |
| 2026-05-04 08:21 | 51.47690 | -0.49041 | 94 ft | 15 kts | 189° |
| 2026-05-04 08:21 | 51.47593 | -0.48999 | 94 ft | 15 kts | 135° |
| 2026-05-04 08:22 | 51.47578 | -0.48844 | 93 ft | 12 kts | 89° |
| 2026-05-04 08:22 | 51.47578 | -0.48717 | 94 ft | 9 kts | 90° |
| 2026-05-04 08:24 | 51.47577 | -0.48379 | 94 ft | 19 kts | 90° |
| 2026-05-04 08:24 | 51.47578 | -0.48172 | 94 ft | 19 kts | 89° |
| 2026-05-04 08:24 | 51.47581 | -0.47969 | 94 ft | 14 kts | 89° |
| 2026-05-04 08:24 | 51.47518 | -0.47875 | 94 ft | 14 kts | 175° |
| 2026-05-04 08:25 | 51.47417 | -0.47873 | 94 ft | 14 kts | 180° |
| 2026-05-04 08:25 | 51.47316 | -0.47872 | 92 ft | 14 kts | 179° |
| 2026-05-04 08:25 | 51.47215 | -0.47870 | 91 ft | 14 kts | 179° |
| 2026-05-04 08:25 | 51.47114 | -0.47869 | 91 ft | 14 kts | 179° |
| 2026-05-04 08:26 | 51.47013 | -0.47868 | 91 ft | 14 kts | 179° |
| 2026-05-04 08:27 | 51.46656 | -0.47806 | 92 ft | 8 kts | 100° |
| 2026-05-04 08:28 | 51.46655 | -0.47788 | 94 ft | 0 kts | 92° |
| 2026-05-04 08:29 | 51.46655 | -0.47783 | 94 ft | 3 kts | 91° |
| 2026-05-04 08:29 | 51.46655 | -0.47694 | 92 ft | 13 kts | 91° |
| 2026-05-04 08:29 | 51.46644 | -0.47521 | 94 ft | 16 kts | 125° |
| 2026-05-04 08:31 | 51.46319 | -0.46730 | 91 ft | 4 kts | 112° |
| 2026-05-04 08:33 | 51.46189 | -0.46707 | 94 ft | 0 kts | 180° |